<?xml version="1.0" encoding="UTF-8" standalone="no" ?>
<gpx xmlns="http://www.topografix.com/GPX/1/1" xmlns:xsi="http://www.w3.org/2001/XMLSchema-instance" xsi:schemaLocation="http://www.topografix.com/GPX/1/1 http://www.topografix.com/GPX/1/1/gpx.xsd" version="1.1" creator="VisuGPX - https://www.visugpx.com">
  <metadata>
    <name>j8, Aubrac, Termes =&amp;gt; Amont-Aubrac</name>
    <desc><![CDATA[j8, Aubrac, Termes => Amont-Aubrac.]]></desc>
  </metadata>
  <trk>
    <name><![CDATA[j8, Aubrac, Termes =&gt; Amont-Aubrac_1]]></name>
    <extensions>
      <line xmlns="http://www.topografix.com/GPX/gpx_style/0/2">
        <color>0000FF</color>
        <width>4</width>
      </line>
    </extensions>
    <trkseg>
      <trkpt lat="44.81148" lon="3.16694">
        <ele>1082.1</ele>
        <time>2021-06-05T06:52:47Z</time>
      </trkpt>
      <trkpt lat="44.81185" lon="3.16693">
        <ele>1087.2</ele>
        <time>2021-06-05T06:53:18Z</time>
      </trkpt>
      <trkpt lat="44.8122" lon="3.16683">
        <ele>1088.1</ele>
        <time>2021-06-05T06:53:49Z</time>
      </trkpt>
      <trkpt lat="44.81259" lon="3.16678">
        <ele>1085</ele>
        <time>2021-06-05T06:54:20Z</time>
      </trkpt>
      <trkpt lat="44.81287" lon="3.16698">
        <ele>1084.5</ele>
        <time>2021-06-05T06:54:50Z</time>
      </trkpt>
      <trkpt lat="44.8128" lon="3.16736">
        <ele>1084.2</ele>
        <time>2021-06-05T06:55:20Z</time>
      </trkpt>
      <trkpt lat="44.81266" lon="3.16773">
        <ele>1082.8</ele>
        <time>2021-06-05T06:55:52Z</time>
      </trkpt>
      <trkpt lat="44.81259" lon="3.16782">
        <ele>1083.8</ele>
        <time>2021-06-05T06:57:08Z</time>
      </trkpt>
      <trkpt lat="44.81237" lon="3.16835">
        <ele>1083.8</ele>
        <time>2021-06-05T06:57:39Z</time>
      </trkpt>
      <trkpt lat="44.81221" lon="3.16888">
        <ele>1083.7</ele>
        <time>2021-06-05T06:58:10Z</time>
      </trkpt>
      <trkpt lat="44.81231" lon="3.16945">
        <ele>1074.5</ele>
        <time>2021-06-05T06:58:41Z</time>
      </trkpt>
      <trkpt lat="44.81248" lon="3.16987">
        <ele>1072.3</ele>
        <time>2021-06-05T06:59:12Z</time>
      </trkpt>
      <trkpt lat="44.81264" lon="3.1704">
        <ele>1075</ele>
        <time>2021-06-05T06:59:42Z</time>
      </trkpt>
      <trkpt lat="44.81259" lon="3.17096">
        <ele>1069.2</ele>
        <time>2021-06-05T07:00:13Z</time>
      </trkpt>
      <trkpt lat="44.81272" lon="3.17153">
        <ele>1062.7</ele>
        <time>2021-06-05T07:00:43Z</time>
      </trkpt>
      <trkpt lat="44.81306" lon="3.17198">
        <ele>1059.7</ele>
        <time>2021-06-05T07:01:14Z</time>
      </trkpt>
      <trkpt lat="44.81338" lon="3.17237">
        <ele>1059.2</ele>
        <time>2021-06-05T07:01:44Z</time>
      </trkpt>
      <trkpt lat="44.81373" lon="3.17276">
        <ele>1059.9</ele>
        <time>2021-06-05T07:02:15Z</time>
      </trkpt>
      <trkpt lat="44.81403" lon="3.17319">
        <ele>1058.2</ele>
        <time>2021-06-05T07:02:46Z</time>
      </trkpt>
      <trkpt lat="44.81382" lon="3.17359">
        <ele>1055.4</ele>
        <time>2021-06-05T07:03:16Z</time>
      </trkpt>
      <trkpt lat="44.81344" lon="3.17391">
        <ele>1050.5</ele>
        <time>2021-06-05T07:03:46Z</time>
      </trkpt>
      <trkpt lat="44.81321" lon="3.17432">
        <ele>1052.3</ele>
        <time>2021-06-05T07:04:16Z</time>
      </trkpt>
      <trkpt lat="44.81297" lon="3.1746">
        <ele>1055.2</ele>
        <time>2021-06-05T07:04:47Z</time>
      </trkpt>
      <trkpt lat="44.81304" lon="3.17468">
        <ele>1055.5</ele>
        <time>2021-06-05T07:05:17Z</time>
      </trkpt>
      <trkpt lat="44.81309" lon="3.17479">
        <ele>1057.2</ele>
        <time>2021-06-05T07:07:14Z</time>
      </trkpt>
      <trkpt lat="44.81302" lon="3.1747">
        <ele>1058.8</ele>
        <time>2021-06-05T07:09:51Z</time>
      </trkpt>
      <trkpt lat="44.81296" lon="3.1748">
        <ele>1054.6</ele>
        <time>2021-06-05T07:11:09Z</time>
      </trkpt>
      <trkpt lat="44.81319" lon="3.1752">
        <ele>1054.1</ele>
        <time>2021-06-05T07:11:40Z</time>
      </trkpt>
      <trkpt lat="44.81343" lon="3.1757">
        <ele>1054.5</ele>
        <time>2021-06-05T07:12:10Z</time>
      </trkpt>
      <trkpt lat="44.81334" lon="3.17575">
        <ele>1058.5</ele>
        <time>2021-06-05T07:13:41Z</time>
      </trkpt>
      <trkpt lat="44.81353" lon="3.17596">
        <ele>1060</ele>
        <time>2021-06-05T07:14:12Z</time>
      </trkpt>
      <trkpt lat="44.81347" lon="3.17586">
        <ele>1059.1</ele>
        <time>2021-06-05T07:14:44Z</time>
      </trkpt>
      <trkpt lat="44.81329" lon="3.1754">
        <ele>1062.7</ele>
        <time>2021-06-05T07:15:16Z</time>
      </trkpt>
      <trkpt lat="44.813" lon="3.17495">
        <ele>1064.8</ele>
        <time>2021-06-05T07:15:47Z</time>
      </trkpt>
      <trkpt lat="44.81293" lon="3.17483">
        <ele>1062.6</ele>
        <time>2021-06-05T07:16:18Z</time>
      </trkpt>
      <trkpt lat="44.81292" lon="3.17497">
        <ele>1062.2</ele>
        <time>2021-06-05T07:18:26Z</time>
      </trkpt>
      <trkpt lat="44.81289" lon="3.17543">
        <ele>1059.4</ele>
        <time>2021-06-05T07:18:56Z</time>
      </trkpt>
      <trkpt lat="44.81289" lon="3.17587">
        <ele>1055.9</ele>
        <time>2021-06-05T07:19:26Z</time>
      </trkpt>
      <trkpt lat="44.81283" lon="3.17648">
        <ele>1046.3</ele>
        <time>2021-06-05T07:19:57Z</time>
      </trkpt>
      <trkpt lat="44.81275" lon="3.17703">
        <ele>1032</ele>
        <time>2021-06-05T07:20:27Z</time>
      </trkpt>
      <trkpt lat="44.81276" lon="3.17757">
        <ele>1027.2</ele>
        <time>2021-06-05T07:20:58Z</time>
      </trkpt>
      <trkpt lat="44.81278" lon="3.17802">
        <ele>1025.3</ele>
        <time>2021-06-05T07:21:28Z</time>
      </trkpt>
      <trkpt lat="44.81278" lon="3.17817">
        <ele>1025.6</ele>
        <time>2021-06-05T07:21:59Z</time>
      </trkpt>
      <trkpt lat="44.81274" lon="3.17829">
        <ele>1030.5</ele>
        <time>2021-06-05T07:23:14Z</time>
      </trkpt>
      <trkpt lat="44.81275" lon="3.17842">
        <ele>1027.7</ele>
        <time>2021-06-05T07:23:45Z</time>
      </trkpt>
      <trkpt lat="44.81282" lon="3.17851">
        <ele>1028.7</ele>
        <time>2021-06-05T07:24:16Z</time>
      </trkpt>
      <trkpt lat="44.8131" lon="3.17894">
        <ele>1029.4</ele>
        <time>2021-06-05T07:24:46Z</time>
      </trkpt>
      <trkpt lat="44.81331" lon="3.17942">
        <ele>1029.7</ele>
        <time>2021-06-05T07:25:17Z</time>
      </trkpt>
      <trkpt lat="44.8135" lon="3.17978">
        <ele>1028.3</ele>
        <time>2021-06-05T07:25:48Z</time>
      </trkpt>
      <trkpt lat="44.81365" lon="3.18019">
        <ele>1031.2</ele>
        <time>2021-06-05T07:26:19Z</time>
      </trkpt>
      <trkpt lat="44.8137" lon="3.18076">
        <ele>1033.3</ele>
        <time>2021-06-05T07:26:50Z</time>
      </trkpt>
      <trkpt lat="44.81364" lon="3.18135">
        <ele>1035.3</ele>
        <time>2021-06-05T07:27:20Z</time>
      </trkpt>
      <trkpt lat="44.81354" lon="3.18179">
        <ele>1034.3</ele>
        <time>2021-06-05T07:27:51Z</time>
      </trkpt>
      <trkpt lat="44.81358" lon="3.18238">
        <ele>1029.6</ele>
        <time>2021-06-05T07:28:22Z</time>
      </trkpt>
      <trkpt lat="44.81363" lon="3.18294">
        <ele>1027.4</ele>
        <time>2021-06-05T07:28:52Z</time>
      </trkpt>
      <trkpt lat="44.81368" lon="3.1835">
        <ele>1026</ele>
        <time>2021-06-05T07:29:22Z</time>
      </trkpt>
      <trkpt lat="44.81351" lon="3.18398">
        <ele>1022.3</ele>
        <time>2021-06-05T07:29:53Z</time>
      </trkpt>
      <trkpt lat="44.81339" lon="3.18453">
        <ele>1026.7</ele>
        <time>2021-06-05T07:30:24Z</time>
      </trkpt>
      <trkpt lat="44.81343" lon="3.18513">
        <ele>1029.1</ele>
        <time>2021-06-05T07:30:54Z</time>
      </trkpt>
      <trkpt lat="44.81354" lon="3.18563">
        <ele>1021.4</ele>
        <time>2021-06-05T07:31:24Z</time>
      </trkpt>
      <trkpt lat="44.81362" lon="3.18619">
        <ele>1023.9</ele>
        <time>2021-06-05T07:31:55Z</time>
      </trkpt>
      <trkpt lat="44.81366" lon="3.18662">
        <ele>1028.1</ele>
        <time>2021-06-05T07:32:25Z</time>
      </trkpt>
      <trkpt lat="44.81369" lon="3.18699">
        <ele>1031.2</ele>
        <time>2021-06-05T07:32:56Z</time>
      </trkpt>
      <trkpt lat="44.8138" lon="3.18744">
        <ele>1028.3</ele>
        <time>2021-06-05T07:33:27Z</time>
      </trkpt>
      <trkpt lat="44.81387" lon="3.18804">
        <ele>1027.5</ele>
        <time>2021-06-05T07:33:58Z</time>
      </trkpt>
      <trkpt lat="44.81395" lon="3.18861">
        <ele>1029</ele>
        <time>2021-06-05T07:34:29Z</time>
      </trkpt>
      <trkpt lat="44.81414" lon="3.18911">
        <ele>1024.5</ele>
        <time>2021-06-05T07:35:00Z</time>
      </trkpt>
      <trkpt lat="44.81437" lon="3.18962">
        <ele>1020.2</ele>
        <time>2021-06-05T07:35:30Z</time>
      </trkpt>
      <trkpt lat="44.81456" lon="3.19011">
        <ele>1014.5</ele>
        <time>2021-06-05T07:36:01Z</time>
      </trkpt>
      <trkpt lat="44.81472" lon="3.19066">
        <ele>1010.1</ele>
        <time>2021-06-05T07:36:31Z</time>
      </trkpt>
      <trkpt lat="44.81495" lon="3.19116">
        <ele>1015.3</ele>
        <time>2021-06-05T07:37:02Z</time>
      </trkpt>
      <trkpt lat="44.81519" lon="3.19168">
        <ele>1021.4</ele>
        <time>2021-06-05T07:37:32Z</time>
      </trkpt>
      <trkpt lat="44.81544" lon="3.19215">
        <ele>1017.7</ele>
        <time>2021-06-05T07:38:04Z</time>
      </trkpt>
      <trkpt lat="44.81572" lon="3.19265">
        <ele>1014.6</ele>
        <time>2021-06-05T07:38:35Z</time>
      </trkpt>
      <trkpt lat="44.81592" lon="3.19317">
        <ele>1014.8</ele>
        <time>2021-06-05T07:39:05Z</time>
      </trkpt>
      <trkpt lat="44.81612" lon="3.19374">
        <ele>1014.5</ele>
        <time>2021-06-05T07:39:36Z</time>
      </trkpt>
      <trkpt lat="44.81633" lon="3.19428">
        <ele>1011.1</ele>
        <time>2021-06-05T07:40:07Z</time>
      </trkpt>
      <trkpt lat="44.81652" lon="3.19473">
        <ele>1007</ele>
        <time>2021-06-05T07:40:38Z</time>
      </trkpt>
      <trkpt lat="44.8166" lon="3.19496">
        <ele>1003.9</ele>
        <time>2021-06-05T07:41:08Z</time>
      </trkpt>
      <trkpt lat="44.81674" lon="3.19527">
        <ele>999.9</ele>
        <time>2021-06-05T07:41:39Z</time>
      </trkpt>
      <trkpt lat="44.81693" lon="3.19579">
        <ele>1012.1</ele>
        <time>2021-06-05T07:42:09Z</time>
      </trkpt>
      <trkpt lat="44.81702" lon="3.19604">
        <ele>1010.3</ele>
        <time>2021-06-05T07:42:40Z</time>
      </trkpt>
      <trkpt lat="44.81706" lon="3.19648">
        <ele>1007.5</ele>
        <time>2021-06-05T07:43:11Z</time>
      </trkpt>
      <trkpt lat="44.8172" lon="3.19703">
        <ele>1003.6</ele>
        <time>2021-06-05T07:43:42Z</time>
      </trkpt>
      <trkpt lat="44.81728" lon="3.19778">
        <ele>998.9</ele>
        <time>2021-06-05T07:44:13Z</time>
      </trkpt>
      <trkpt lat="44.81713" lon="3.19836">
        <ele>998.1</ele>
        <time>2021-06-05T07:44:43Z</time>
      </trkpt>
      <trkpt lat="44.81702" lon="3.19887">
        <ele>999.9</ele>
        <time>2021-06-05T07:45:14Z</time>
      </trkpt>
      <trkpt lat="44.8168" lon="3.19919">
        <ele>1006.7</ele>
        <time>2021-06-05T07:45:44Z</time>
      </trkpt>
      <trkpt lat="44.81651" lon="3.1994">
        <ele>1012</ele>
        <time>2021-06-05T07:46:15Z</time>
      </trkpt>
      <trkpt lat="44.81617" lon="3.19956">
        <ele>1013.9</ele>
        <time>2021-06-05T07:46:45Z</time>
      </trkpt>
      <trkpt lat="44.81582" lon="3.19982">
        <ele>1016.3</ele>
        <time>2021-06-05T07:47:16Z</time>
      </trkpt>
      <trkpt lat="44.8155" lon="3.2002">
        <ele>1016.4</ele>
        <time>2021-06-05T07:47:46Z</time>
      </trkpt>
      <trkpt lat="44.81525" lon="3.2006">
        <ele>1012.5</ele>
        <time>2021-06-05T07:48:17Z</time>
      </trkpt>
      <trkpt lat="44.81513" lon="3.20116">
        <ele>1016.6</ele>
        <time>2021-06-05T07:48:47Z</time>
      </trkpt>
      <trkpt lat="44.81503" lon="3.20174">
        <ele>1019.1</ele>
        <time>2021-06-05T07:49:17Z</time>
      </trkpt>
      <trkpt lat="44.81496" lon="3.20233">
        <ele>1018.1</ele>
        <time>2021-06-05T07:49:47Z</time>
      </trkpt>
      <trkpt lat="44.81485" lon="3.20279">
        <ele>1019.9</ele>
        <time>2021-06-05T07:50:17Z</time>
      </trkpt>
      <trkpt lat="44.81473" lon="3.2034">
        <ele>1016.5</ele>
        <time>2021-06-05T07:50:48Z</time>
      </trkpt>
      <trkpt lat="44.81467" lon="3.20353">
        <ele>1016.6</ele>
        <time>2021-06-05T07:51:18Z</time>
      </trkpt>
      <trkpt lat="44.81456" lon="3.20386">
        <ele>1015.6</ele>
        <time>2021-06-05T07:51:48Z</time>
      </trkpt>
      <trkpt lat="44.81436" lon="3.20438">
        <ele>1019.2</ele>
        <time>2021-06-05T07:52:19Z</time>
      </trkpt>
      <trkpt lat="44.81413" lon="3.20489">
        <ele>1020.3</ele>
        <time>2021-06-05T07:52:49Z</time>
      </trkpt>
      <trkpt lat="44.814" lon="3.2055">
        <ele>1017.3</ele>
        <time>2021-06-05T07:53:20Z</time>
      </trkpt>
      <trkpt lat="44.81388" lon="3.20612">
        <ele>1013.3</ele>
        <time>2021-06-05T07:53:51Z</time>
      </trkpt>
      <trkpt lat="44.81373" lon="3.20673">
        <ele>1008.5</ele>
        <time>2021-06-05T07:54:22Z</time>
      </trkpt>
      <trkpt lat="44.81354" lon="3.20729">
        <ele>1005.8</ele>
        <time>2021-06-05T07:54:52Z</time>
      </trkpt>
      <trkpt lat="44.81344" lon="3.20791">
        <ele>1006.2</ele>
        <time>2021-06-05T07:55:23Z</time>
      </trkpt>
      <trkpt lat="44.81342" lon="3.20849">
        <ele>1002.1</ele>
        <time>2021-06-05T07:55:54Z</time>
      </trkpt>
      <trkpt lat="44.81347" lon="3.20911">
        <ele>999.9</ele>
        <time>2021-06-05T07:56:24Z</time>
      </trkpt>
      <trkpt lat="44.81342" lon="3.20977">
        <ele>1001.2</ele>
        <time>2021-06-05T07:56:55Z</time>
      </trkpt>
      <trkpt lat="44.81334" lon="3.21038">
        <ele>1000.9</ele>
        <time>2021-06-05T07:57:26Z</time>
      </trkpt>
      <trkpt lat="44.81328" lon="3.21096">
        <ele>1000.5</ele>
        <time>2021-06-05T07:57:56Z</time>
      </trkpt>
      <trkpt lat="44.8132" lon="3.21119">
        <ele>1001.6</ele>
        <time>2021-06-05T07:58:26Z</time>
      </trkpt>
      <trkpt lat="44.81321" lon="3.21131">
        <ele>998.3</ele>
        <time>2021-06-05T08:03:30Z</time>
      </trkpt>
      <trkpt lat="44.81314" lon="3.21141">
        <ele>998</ele>
        <time>2021-06-05T08:04:18Z</time>
      </trkpt>
      <trkpt lat="44.81316" lon="3.21154">
        <ele>994.9</ele>
        <time>2021-06-05T08:04:56Z</time>
      </trkpt>
      <trkpt lat="44.81319" lon="3.21216">
        <ele>988.8</ele>
        <time>2021-06-05T08:05:27Z</time>
      </trkpt>
      <trkpt lat="44.81327" lon="3.21279">
        <ele>986.9</ele>
        <time>2021-06-05T08:05:57Z</time>
      </trkpt>
      <trkpt lat="44.81332" lon="3.21342">
        <ele>990</ele>
        <time>2021-06-05T08:06:27Z</time>
      </trkpt>
      <trkpt lat="44.8135" lon="3.21399">
        <ele>986.4</ele>
        <time>2021-06-05T08:06:58Z</time>
      </trkpt>
      <trkpt lat="44.81351" lon="3.21457">
        <ele>984.8</ele>
        <time>2021-06-05T08:07:29Z</time>
      </trkpt>
      <trkpt lat="44.81335" lon="3.21519">
        <ele>988.1</ele>
        <time>2021-06-05T08:08:00Z</time>
      </trkpt>
      <trkpt lat="44.81314" lon="3.21574">
        <ele>987.6</ele>
        <time>2021-06-05T08:08:30Z</time>
      </trkpt>
      <trkpt lat="44.81284" lon="3.21618">
        <ele>986.4</ele>
        <time>2021-06-05T08:09:01Z</time>
      </trkpt>
      <trkpt lat="44.81256" lon="3.21665">
        <ele>991.9</ele>
        <time>2021-06-05T08:09:32Z</time>
      </trkpt>
      <trkpt lat="44.81237" lon="3.21719">
        <ele>991.5</ele>
        <time>2021-06-05T08:10:03Z</time>
      </trkpt>
      <trkpt lat="44.81217" lon="3.2178">
        <ele>989.1</ele>
        <time>2021-06-05T08:10:34Z</time>
      </trkpt>
      <trkpt lat="44.81202" lon="3.21835">
        <ele>984.2</ele>
        <time>2021-06-05T08:11:04Z</time>
      </trkpt>
      <trkpt lat="44.81186" lon="3.21896">
        <ele>983.3</ele>
        <time>2021-06-05T08:11:35Z</time>
      </trkpt>
      <trkpt lat="44.81178" lon="3.21959">
        <ele>988</ele>
        <time>2021-06-05T08:12:06Z</time>
      </trkpt>
      <trkpt lat="44.81172" lon="3.22016">
        <ele>986.3</ele>
        <time>2021-06-05T08:12:36Z</time>
      </trkpt>
      <trkpt lat="44.81164" lon="3.22076">
        <ele>987.1</ele>
        <time>2021-06-05T08:13:07Z</time>
      </trkpt>
      <trkpt lat="44.81155" lon="3.2213">
        <ele>991.2</ele>
        <time>2021-06-05T08:13:38Z</time>
      </trkpt>
      <trkpt lat="44.81143" lon="3.22197">
        <ele>989.6</ele>
        <time>2021-06-05T08:14:09Z</time>
      </trkpt>
      <trkpt lat="44.81137" lon="3.22264">
        <ele>987.9</ele>
        <time>2021-06-05T08:14:40Z</time>
      </trkpt>
      <trkpt lat="44.81135" lon="3.22321">
        <ele>990.2</ele>
        <time>2021-06-05T08:15:10Z</time>
      </trkpt>
      <trkpt lat="44.81132" lon="3.22334">
        <ele>994.7</ele>
        <time>2021-06-05T08:15:55Z</time>
      </trkpt>
      <trkpt lat="44.81131" lon="3.22396">
        <ele>992.5</ele>
        <time>2021-06-05T08:16:25Z</time>
      </trkpt>
      <trkpt lat="44.81126" lon="3.22459">
        <ele>989.1</ele>
        <time>2021-06-05T08:16:56Z</time>
      </trkpt>
      <trkpt lat="44.8112" lon="3.22522">
        <ele>984.4</ele>
        <time>2021-06-05T08:17:26Z</time>
      </trkpt>
      <trkpt lat="44.81116" lon="3.22585">
        <ele>981.2</ele>
        <time>2021-06-05T08:17:57Z</time>
      </trkpt>
      <trkpt lat="44.81111" lon="3.22647">
        <ele>983.7</ele>
        <time>2021-06-05T08:18:27Z</time>
      </trkpt>
      <trkpt lat="44.81107" lon="3.22702">
        <ele>983</ele>
        <time>2021-06-05T08:18:58Z</time>
      </trkpt>
      <trkpt lat="44.81129" lon="3.22752">
        <ele>980.7</ele>
        <time>2021-06-05T08:19:29Z</time>
      </trkpt>
      <trkpt lat="44.81134" lon="3.22763">
        <ele>982.8</ele>
        <time>2021-06-05T08:19:59Z</time>
      </trkpt>
      <trkpt lat="44.81137" lon="3.22775">
        <ele>987.8</ele>
        <time>2021-06-05T08:22:14Z</time>
      </trkpt>
      <trkpt lat="44.81148" lon="3.22804">
        <ele>986.5</ele>
        <time>2021-06-05T08:22:45Z</time>
      </trkpt>
      <trkpt lat="44.81162" lon="3.22854">
        <ele>984.5</ele>
        <time>2021-06-05T08:23:15Z</time>
      </trkpt>
      <trkpt lat="44.81164" lon="3.22908">
        <ele>982.3</ele>
        <time>2021-06-05T08:23:45Z</time>
      </trkpt>
      <trkpt lat="44.81159" lon="3.22969">
        <ele>979.5</ele>
        <time>2021-06-05T08:24:16Z</time>
      </trkpt>
      <trkpt lat="44.81167" lon="3.23034">
        <ele>976.3</ele>
        <time>2021-06-05T08:24:46Z</time>
      </trkpt>
      <trkpt lat="44.81189" lon="3.23093">
        <ele>981</ele>
        <time>2021-06-05T08:25:17Z</time>
      </trkpt>
      <trkpt lat="44.81205" lon="3.23148">
        <ele>984</ele>
        <time>2021-06-05T08:25:47Z</time>
      </trkpt>
      <trkpt lat="44.81225" lon="3.23203">
        <ele>988.9</ele>
        <time>2021-06-05T08:26:18Z</time>
      </trkpt>
      <trkpt lat="44.81244" lon="3.23258">
        <ele>990.2</ele>
        <time>2021-06-05T08:26:49Z</time>
      </trkpt>
      <trkpt lat="44.81263" lon="3.23311">
        <ele>993.1</ele>
        <time>2021-06-05T08:27:20Z</time>
      </trkpt>
      <trkpt lat="44.81281" lon="3.23354">
        <ele>995.4</ele>
        <time>2021-06-05T08:27:50Z</time>
      </trkpt>
      <trkpt lat="44.81297" lon="3.23406">
        <ele>999.5</ele>
        <time>2021-06-05T08:28:21Z</time>
      </trkpt>
      <trkpt lat="44.8131" lon="3.23463">
        <ele>999.3</ele>
        <time>2021-06-05T08:28:52Z</time>
      </trkpt>
      <trkpt lat="44.81321" lon="3.23512">
        <ele>999</ele>
        <time>2021-06-05T08:29:22Z</time>
      </trkpt>
      <trkpt lat="44.81332" lon="3.23588">
        <ele>993.7</ele>
        <time>2021-06-05T08:29:53Z</time>
      </trkpt>
      <trkpt lat="44.81346" lon="3.23644">
        <ele>990.4</ele>
        <time>2021-06-05T08:30:23Z</time>
      </trkpt>
      <trkpt lat="44.81355" lon="3.23709">
        <ele>999.8</ele>
        <time>2021-06-05T08:30:54Z</time>
      </trkpt>
      <trkpt lat="44.81368" lon="3.23766">
        <ele>1007.3</ele>
        <time>2021-06-05T08:31:24Z</time>
      </trkpt>
      <trkpt lat="44.81384" lon="3.23821">
        <ele>1009.5</ele>
        <time>2021-06-05T08:31:55Z</time>
      </trkpt>
      <trkpt lat="44.81408" lon="3.23868">
        <ele>1009.5</ele>
        <time>2021-06-05T08:32:25Z</time>
      </trkpt>
      <trkpt lat="44.81435" lon="3.23914">
        <ele>1013.8</ele>
        <time>2021-06-05T08:32:56Z</time>
      </trkpt>
      <trkpt lat="44.81448" lon="3.23971">
        <ele>1015.2</ele>
        <time>2021-06-05T08:33:26Z</time>
      </trkpt>
      <trkpt lat="44.81452" lon="3.24027">
        <ele>1016.8</ele>
        <time>2021-06-05T08:33:56Z</time>
      </trkpt>
      <trkpt lat="44.81458" lon="3.24087">
        <ele>1020.8</ele>
        <time>2021-06-05T08:34:26Z</time>
      </trkpt>
      <trkpt lat="44.81469" lon="3.24147">
        <ele>1023.3</ele>
        <time>2021-06-05T08:34:57Z</time>
      </trkpt>
      <trkpt lat="44.81472" lon="3.24208">
        <ele>1025.4</ele>
        <time>2021-06-05T08:35:27Z</time>
      </trkpt>
      <trkpt lat="44.81477" lon="3.24268">
        <ele>1026.1</ele>
        <time>2021-06-05T08:35:58Z</time>
      </trkpt>
      <trkpt lat="44.81477" lon="3.2433">
        <ele>1029</ele>
        <time>2021-06-05T08:36:29Z</time>
      </trkpt>
      <trkpt lat="44.81473" lon="3.24374">
        <ele>1031.3</ele>
        <time>2021-06-05T08:36:59Z</time>
      </trkpt>
      <trkpt lat="44.81472" lon="3.24388">
        <ele>1032.2</ele>
        <time>2021-06-05T08:37:39Z</time>
      </trkpt>
      <trkpt lat="44.81467" lon="3.24437">
        <ele>1032.9</ele>
        <time>2021-06-05T08:38:11Z</time>
      </trkpt>
      <trkpt lat="44.81463" lon="3.24466">
        <ele>1034.1</ele>
        <time>2021-06-05T08:38:42Z</time>
      </trkpt>
      <trkpt lat="44.81461" lon="3.24481">
        <ele>1034.4</ele>
        <time>2021-06-05T08:39:12Z</time>
      </trkpt>
      <trkpt lat="44.81457" lon="3.24517">
        <ele>1036.9</ele>
        <time>2021-06-05T08:39:42Z</time>
      </trkpt>
      <trkpt lat="44.81451" lon="3.24556">
        <ele>1034.1</ele>
        <time>2021-06-05T08:40:13Z</time>
      </trkpt>
      <trkpt lat="44.81443" lon="3.24617">
        <ele>1035.5</ele>
        <time>2021-06-05T08:40:43Z</time>
      </trkpt>
      <trkpt lat="44.8144" lon="3.24667">
        <ele>1031.2</ele>
        <time>2021-06-05T08:41:14Z</time>
      </trkpt>
      <trkpt lat="44.81439" lon="3.24679">
        <ele>1032.7</ele>
        <time>2021-06-05T08:41:19Z</time>
      </trkpt>
      <trkpt lat="44.8143" lon="3.24739">
        <ele>1031.2</ele>
        <time>2021-06-05T08:41:51Z</time>
      </trkpt>
      <trkpt lat="44.81422" lon="3.24785">
        <ele>1028.8</ele>
        <time>2021-06-05T08:42:21Z</time>
      </trkpt>
      <trkpt lat="44.81417" lon="3.2483">
        <ele>1028.4</ele>
        <time>2021-06-05T08:42:51Z</time>
      </trkpt>
      <trkpt lat="44.81388" lon="3.24874">
        <ele>1028.6</ele>
        <time>2021-06-05T08:43:23Z</time>
      </trkpt>
      <trkpt lat="44.8136" lon="3.24902">
        <ele>1027.7</ele>
        <time>2021-06-05T08:43:53Z</time>
      </trkpt>
      <trkpt lat="44.81338" lon="3.24912">
        <ele>1028.6</ele>
        <time>2021-06-05T08:44:23Z</time>
      </trkpt>
      <trkpt lat="44.81306" lon="3.24934">
        <ele>1028.2</ele>
        <time>2021-06-05T08:44:53Z</time>
      </trkpt>
      <trkpt lat="44.81281" lon="3.24956">
        <ele>1026.3</ele>
        <time>2021-06-05T08:45:24Z</time>
      </trkpt>
      <trkpt lat="44.81247" lon="3.24985">
        <ele>1021</ele>
        <time>2021-06-05T08:45:55Z</time>
      </trkpt>
      <trkpt lat="44.8121" lon="3.25018">
        <ele>1020.2</ele>
        <time>2021-06-05T08:46:25Z</time>
      </trkpt>
      <trkpt lat="44.81168" lon="3.25035">
        <ele>1018.9</ele>
        <time>2021-06-05T08:46:55Z</time>
      </trkpt>
      <trkpt lat="44.81125" lon="3.25053">
        <ele>1021.9</ele>
        <time>2021-06-05T08:47:26Z</time>
      </trkpt>
      <trkpt lat="44.8108" lon="3.25062">
        <ele>1023</ele>
        <time>2021-06-05T08:47:57Z</time>
      </trkpt>
      <trkpt lat="44.81033" lon="3.25065">
        <ele>1022.6</ele>
        <time>2021-06-05T08:48:28Z</time>
      </trkpt>
      <trkpt lat="44.80988" lon="3.25072">
        <ele>1021.6</ele>
        <time>2021-06-05T08:48:59Z</time>
      </trkpt>
      <trkpt lat="44.80948" lon="3.2509">
        <ele>1018.9</ele>
        <time>2021-06-05T08:49:30Z</time>
      </trkpt>
      <trkpt lat="44.80903" lon="3.25106">
        <ele>1016.3</ele>
        <time>2021-06-05T08:50:01Z</time>
      </trkpt>
      <trkpt lat="44.80862" lon="3.25122">
        <ele>1006.9</ele>
        <time>2021-06-05T08:50:31Z</time>
      </trkpt>
      <trkpt lat="44.80823" lon="3.25141">
        <ele>1004.9</ele>
        <time>2021-06-05T08:51:01Z</time>
      </trkpt>
      <trkpt lat="44.80778" lon="3.25154">
        <ele>1004.7</ele>
        <time>2021-06-05T08:51:31Z</time>
      </trkpt>
      <trkpt lat="44.80732" lon="3.25144">
        <ele>1007.9</ele>
        <time>2021-06-05T08:52:02Z</time>
      </trkpt>
      <trkpt lat="44.80687" lon="3.25135">
        <ele>1005.1</ele>
        <time>2021-06-05T08:52:33Z</time>
      </trkpt>
      <trkpt lat="44.80644" lon="3.25132">
        <ele>1003.6</ele>
        <time>2021-06-05T08:53:04Z</time>
      </trkpt>
      <trkpt lat="44.80597" lon="3.25125">
        <ele>1001.8</ele>
        <time>2021-06-05T08:53:35Z</time>
      </trkpt>
      <trkpt lat="44.80554" lon="3.25116">
        <ele>996.9</ele>
        <time>2021-06-05T08:54:06Z</time>
      </trkpt>
      <trkpt lat="44.80515" lon="3.25126">
        <ele>992.7</ele>
        <time>2021-06-05T08:54:36Z</time>
      </trkpt>
      <trkpt lat="44.80474" lon="3.25145">
        <ele>987.2</ele>
        <time>2021-06-05T08:55:07Z</time>
      </trkpt>
      <trkpt lat="44.80433" lon="3.25164">
        <ele>985.2</ele>
        <time>2021-06-05T08:55:38Z</time>
      </trkpt>
      <trkpt lat="44.80399" lon="3.25188">
        <ele>986.2</ele>
        <time>2021-06-05T08:56:09Z</time>
      </trkpt>
      <trkpt lat="44.80352" lon="3.25208">
        <ele>985.4</ele>
        <time>2021-06-05T08:56:39Z</time>
      </trkpt>
      <trkpt lat="44.80305" lon="3.25199">
        <ele>986.7</ele>
        <time>2021-06-05T08:57:10Z</time>
      </trkpt>
      <trkpt lat="44.80267" lon="3.25216">
        <ele>990</ele>
        <time>2021-06-05T08:57:40Z</time>
      </trkpt>
      <trkpt lat="44.80238" lon="3.25255">
        <ele>990.1</ele>
        <time>2021-06-05T08:58:11Z</time>
      </trkpt>
      <trkpt lat="44.80209" lon="3.25303">
        <ele>986.7</ele>
        <time>2021-06-05T08:58:41Z</time>
      </trkpt>
      <trkpt lat="44.80213" lon="3.2537">
        <ele>992.4</ele>
        <time>2021-06-05T08:59:11Z</time>
      </trkpt>
      <trkpt lat="44.80219" lon="3.25428">
        <ele>991.5</ele>
        <time>2021-06-05T08:59:43Z</time>
      </trkpt>
      <trkpt lat="44.80226" lon="3.25489">
        <ele>990.3</ele>
        <time>2021-06-05T09:00:13Z</time>
      </trkpt>
      <trkpt lat="44.80234" lon="3.25554">
        <ele>994.9</ele>
        <time>2021-06-05T09:00:44Z</time>
      </trkpt>
      <trkpt lat="44.80243" lon="3.25611">
        <ele>993.3</ele>
        <time>2021-06-05T09:01:14Z</time>
      </trkpt>
      <trkpt lat="44.80249" lon="3.25673">
        <ele>988.8</ele>
        <time>2021-06-05T09:01:45Z</time>
      </trkpt>
      <trkpt lat="44.80251" lon="3.25733">
        <ele>982.7</ele>
        <time>2021-06-05T09:02:16Z</time>
      </trkpt>
      <trkpt lat="44.80274" lon="3.25786">
        <ele>979.4</ele>
        <time>2021-06-05T09:02:46Z</time>
      </trkpt>
      <trkpt lat="44.80298" lon="3.25833">
        <ele>977.8</ele>
        <time>2021-06-05T09:03:16Z</time>
      </trkpt>
      <trkpt lat="44.80293" lon="3.25897">
        <ele>978.8</ele>
        <time>2021-06-05T09:03:47Z</time>
      </trkpt>
      <trkpt lat="44.8029" lon="3.25926">
        <ele>978.4</ele>
        <time>2021-06-05T09:04:17Z</time>
      </trkpt>
      <trkpt lat="44.80288" lon="3.2597">
        <ele>981.4</ele>
        <time>2021-06-05T09:04:47Z</time>
      </trkpt>
      <trkpt lat="44.803" lon="3.26029">
        <ele>983.4</ele>
        <time>2021-06-05T09:05:18Z</time>
      </trkpt>
      <trkpt lat="44.80306" lon="3.26089">
        <ele>979.9</ele>
        <time>2021-06-05T09:05:49Z</time>
      </trkpt>
      <trkpt lat="44.80308" lon="3.26144">
        <ele>976.7</ele>
        <time>2021-06-05T09:06:19Z</time>
      </trkpt>
      <trkpt lat="44.80305" lon="3.26203">
        <ele>973.7</ele>
        <time>2021-06-05T09:06:50Z</time>
      </trkpt>
      <trkpt lat="44.80298" lon="3.26265">
        <ele>972.4</ele>
        <time>2021-06-05T09:07:20Z</time>
      </trkpt>
      <trkpt lat="44.80296" lon="3.26299">
        <ele>972.7</ele>
        <time>2021-06-05T09:07:50Z</time>
      </trkpt>
      <trkpt lat="44.80292" lon="3.26311">
        <ele>970.4</ele>
        <time>2021-06-05T09:08:23Z</time>
      </trkpt>
      <trkpt lat="44.80277" lon="3.26359">
        <ele>970.7</ele>
        <time>2021-06-05T09:08:53Z</time>
      </trkpt>
      <trkpt lat="44.80298" lon="3.26411">
        <ele>977.6</ele>
        <time>2021-06-05T09:09:24Z</time>
      </trkpt>
      <trkpt lat="44.80309" lon="3.26455">
        <ele>971.5</ele>
        <time>2021-06-05T09:09:54Z</time>
      </trkpt>
      <trkpt lat="44.80329" lon="3.2652">
        <ele>973.8</ele>
        <time>2021-06-05T09:10:25Z</time>
      </trkpt>
      <trkpt lat="44.80357" lon="3.26563">
        <ele>969.8</ele>
        <time>2021-06-05T09:10:55Z</time>
      </trkpt>
      <trkpt lat="44.80379" lon="3.26618">
        <ele>965.8</ele>
        <time>2021-06-05T09:11:26Z</time>
      </trkpt>
      <trkpt lat="44.80374" lon="3.26675">
        <ele>956.2</ele>
        <time>2021-06-05T09:11:57Z</time>
      </trkpt>
      <trkpt lat="44.80376" lon="3.26733">
        <ele>950.4</ele>
        <time>2021-06-05T09:12:28Z</time>
      </trkpt>
      <trkpt lat="44.80378" lon="3.2679">
        <ele>942.3</ele>
        <time>2021-06-05T09:12:58Z</time>
      </trkpt>
      <trkpt lat="44.8038" lon="3.26843">
        <ele>943.5</ele>
        <time>2021-06-05T09:13:28Z</time>
      </trkpt>
      <trkpt lat="44.80382" lon="3.26856">
        <ele>944.8</ele>
        <time>2021-06-05T09:14:23Z</time>
      </trkpt>
      <trkpt lat="44.80412" lon="3.26895">
        <ele>942.3</ele>
        <time>2021-06-05T09:14:54Z</time>
      </trkpt>
      <trkpt lat="44.80434" lon="3.26941">
        <ele>945.6</ele>
        <time>2021-06-05T09:15:25Z</time>
      </trkpt>
      <trkpt lat="44.80422" lon="3.26974">
        <ele>948.1</ele>
        <time>2021-06-05T09:15:56Z</time>
      </trkpt>
      <trkpt lat="44.80376" lon="3.2699">
        <ele>937.3</ele>
        <time>2021-06-05T09:16:26Z</time>
      </trkpt>
      <trkpt lat="44.80334" lon="3.27008">
        <ele>932.2</ele>
        <time>2021-06-05T09:16:56Z</time>
      </trkpt>
      <trkpt lat="44.8031" lon="3.27038">
        <ele>927</ele>
        <time>2021-06-05T09:17:26Z</time>
      </trkpt>
      <trkpt lat="44.80274" lon="3.27076">
        <ele>931.3</ele>
        <time>2021-06-05T09:17:56Z</time>
      </trkpt>
      <trkpt lat="44.8024" lon="3.27108">
        <ele>928.7</ele>
        <time>2021-06-05T09:18:27Z</time>
      </trkpt>
      <trkpt lat="44.80235" lon="3.27144">
        <ele>934.1</ele>
        <time>2021-06-05T09:18:57Z</time>
      </trkpt>
      <trkpt lat="44.80229" lon="3.27154">
        <ele>934.1</ele>
        <time>2021-06-05T09:19:35Z</time>
      </trkpt>
      <trkpt lat="44.80219" lon="3.2715">
        <ele>932.7</ele>
        <time>2021-06-05T09:20:13Z</time>
      </trkpt>
      <trkpt lat="44.8019" lon="3.27155">
        <ele>935.5</ele>
        <time>2021-06-05T09:20:44Z</time>
      </trkpt>
      <trkpt lat="44.80177" lon="3.27161">
        <ele>937.2</ele>
        <time>2021-06-05T09:21:14Z</time>
      </trkpt>
      <trkpt lat="44.80177" lon="3.27161">
        <ele>937.7</ele>
        <time>2021-06-05T09:22:15Z</time>
      </trkpt>
      <trkpt lat="44.80178" lon="3.27161">
        <ele>937.3</ele>
        <time>2021-06-05T09:22:46Z</time>
      </trkpt>
      <trkpt lat="44.80176" lon="3.27158">
        <ele>936</ele>
        <time>2021-06-05T09:23:16Z</time>
      </trkpt>
      <trkpt lat="44.80158" lon="3.27175">
        <ele>935.6</ele>
        <time>2021-06-05T09:23:47Z</time>
      </trkpt>
      <trkpt lat="44.80133" lon="3.2719">
        <ele>937.4</ele>
        <time>2021-06-05T09:24:18Z</time>
      </trkpt>
      <trkpt lat="44.80098" lon="3.27214">
        <ele>943.1</ele>
        <time>2021-06-05T09:24:49Z</time>
      </trkpt>
      <trkpt lat="44.80059" lon="3.27218">
        <ele>938.1</ele>
        <time>2021-06-05T09:25:20Z</time>
      </trkpt>
      <trkpt lat="44.80028" lon="3.27217">
        <ele>938.2</ele>
        <time>2021-06-05T09:25:50Z</time>
      </trkpt>
      <trkpt lat="44.80021" lon="3.27275">
        <ele>935.6</ele>
        <time>2021-06-05T09:26:20Z</time>
      </trkpt>
      <trkpt lat="44.8001" lon="3.27321">
        <ele>942.7</ele>
        <time>2021-06-05T09:26:50Z</time>
      </trkpt>
      <trkpt lat="44.8002" lon="3.27355">
        <ele>991.2</ele>
        <time>2021-06-05T09:27:20Z</time>
      </trkpt>
      <trkpt lat="44.80015" lon="3.2734">
        <ele>991.3</ele>
        <time>2021-06-05T09:27:51Z</time>
      </trkpt>
      <trkpt lat="44.79995" lon="3.27287">
        <ele>938.2</ele>
        <time>2021-06-05T09:28:21Z</time>
      </trkpt>
      <trkpt lat="44.7997" lon="3.27261">
        <ele>939.1</ele>
        <time>2021-06-05T09:28:52Z</time>
      </trkpt>
      <trkpt lat="44.79942" lon="3.27231">
        <ele>940.6</ele>
        <time>2021-06-05T09:29:22Z</time>
      </trkpt>
      <trkpt lat="44.79912" lon="3.27208">
        <ele>947.3</ele>
        <time>2021-06-05T09:29:53Z</time>
      </trkpt>
      <trkpt lat="44.79886" lon="3.27175">
        <ele>955.2</ele>
        <time>2021-06-05T09:30:23Z</time>
      </trkpt>
      <trkpt lat="44.79836" lon="3.27165">
        <ele>956.5</ele>
        <time>2021-06-05T09:30:54Z</time>
      </trkpt>
      <trkpt lat="44.79796" lon="3.27159">
        <ele>955.6</ele>
        <time>2021-06-05T09:31:25Z</time>
      </trkpt>
      <trkpt lat="44.79757" lon="3.27165">
        <ele>947.7</ele>
        <time>2021-06-05T09:31:55Z</time>
      </trkpt>
      <trkpt lat="44.79725" lon="3.27168">
        <ele>945.1</ele>
        <time>2021-06-05T09:32:25Z</time>
      </trkpt>
      <trkpt lat="44.79734" lon="3.27165">
        <ele>943.5</ele>
        <time>2021-06-05T09:33:03Z</time>
      </trkpt>
      <trkpt lat="44.79725" lon="3.27162">
        <ele>946.7</ele>
        <time>2021-06-05T09:33:42Z</time>
      </trkpt>
      <trkpt lat="44.79725" lon="3.2711">
        <ele>952.8</ele>
        <time>2021-06-05T09:34:13Z</time>
      </trkpt>
      <trkpt lat="44.79724" lon="3.27049">
        <ele>961.6</ele>
        <time>2021-06-05T09:34:43Z</time>
      </trkpt>
      <trkpt lat="44.79714" lon="3.26999">
        <ele>966.6</ele>
        <time>2021-06-05T09:35:14Z</time>
      </trkpt>
      <trkpt lat="44.7971" lon="3.26944">
        <ele>965.5</ele>
        <time>2021-06-05T09:35:44Z</time>
      </trkpt>
      <trkpt lat="44.79695" lon="3.26888">
        <ele>964.5</ele>
        <time>2021-06-05T09:36:15Z</time>
      </trkpt>
      <trkpt lat="44.79661" lon="3.26842">
        <ele>962.2</ele>
        <time>2021-06-05T09:36:46Z</time>
      </trkpt>
      <trkpt lat="44.79637" lon="3.26805">
        <ele>961.4</ele>
        <time>2021-06-05T09:37:16Z</time>
      </trkpt>
      <trkpt lat="44.79608" lon="3.26761">
        <ele>962.6</ele>
        <time>2021-06-05T09:37:47Z</time>
      </trkpt>
      <trkpt lat="44.79584" lon="3.26713">
        <ele>965.6</ele>
        <time>2021-06-05T09:38:17Z</time>
      </trkpt>
      <trkpt lat="44.79559" lon="3.26676">
        <ele>963.3</ele>
        <time>2021-06-05T09:38:47Z</time>
      </trkpt>
      <trkpt lat="44.79553" lon="3.26665">
        <ele>964.8</ele>
        <time>2021-06-05T09:41:31Z</time>
      </trkpt>
      <trkpt lat="44.79545" lon="3.26641">
        <ele>964.9</ele>
        <time>2021-06-05T09:42:01Z</time>
      </trkpt>
      <trkpt lat="44.79552" lon="3.26632">
        <ele>968.6</ele>
        <time>2021-06-05T09:42:41Z</time>
      </trkpt>
      <trkpt lat="44.79568" lon="3.26577">
        <ele>968.3</ele>
        <time>2021-06-05T09:43:12Z</time>
      </trkpt>
      <trkpt lat="44.79595" lon="3.26524">
        <ele>966.2</ele>
        <time>2021-06-05T09:43:42Z</time>
      </trkpt>
      <trkpt lat="44.79606" lon="3.26467">
        <ele>966.7</ele>
        <time>2021-06-05T09:44:12Z</time>
      </trkpt>
      <trkpt lat="44.79608" lon="3.2641">
        <ele>967.9</ele>
        <time>2021-06-05T09:44:43Z</time>
      </trkpt>
      <trkpt lat="44.79598" lon="3.26357">
        <ele>970.1</ele>
        <time>2021-06-05T09:45:14Z</time>
      </trkpt>
      <trkpt lat="44.79587" lon="3.26308">
        <ele>977.6</ele>
        <time>2021-06-05T09:45:44Z</time>
      </trkpt>
      <trkpt lat="44.79568" lon="3.26256">
        <ele>978.6</ele>
        <time>2021-06-05T09:46:14Z</time>
      </trkpt>
      <trkpt lat="44.79542" lon="3.26229">
        <ele>978.6</ele>
        <time>2021-06-05T09:46:45Z</time>
      </trkpt>
      <trkpt lat="44.79505" lon="3.26196">
        <ele>981.1</ele>
        <time>2021-06-05T09:47:16Z</time>
      </trkpt>
      <trkpt lat="44.79486" lon="3.26179">
        <ele>979.2</ele>
        <time>2021-06-05T09:47:46Z</time>
      </trkpt>
      <trkpt lat="44.79477" lon="3.26178">
        <ele>976.4</ele>
        <time>2021-06-05T09:48:49Z</time>
      </trkpt>
      <trkpt lat="44.79449" lon="3.26158">
        <ele>974</ele>
        <time>2021-06-05T09:49:19Z</time>
      </trkpt>
      <trkpt lat="44.79407" lon="3.26138">
        <ele>981.3</ele>
        <time>2021-06-05T09:49:50Z</time>
      </trkpt>
      <trkpt lat="44.79373" lon="3.26132">
        <ele>989.5</ele>
        <time>2021-06-05T09:50:21Z</time>
      </trkpt>
      <trkpt lat="44.79344" lon="3.26132">
        <ele>994.8</ele>
        <time>2021-06-05T09:50:51Z</time>
      </trkpt>
      <trkpt lat="44.79303" lon="3.26113">
        <ele>1001.7</ele>
        <time>2021-06-05T09:51:22Z</time>
      </trkpt>
      <trkpt lat="44.79258" lon="3.26089">
        <ele>1005.8</ele>
        <time>2021-06-05T09:51:53Z</time>
      </trkpt>
      <trkpt lat="44.79216" lon="3.26067">
        <ele>1001.5</ele>
        <time>2021-06-05T09:52:24Z</time>
      </trkpt>
      <trkpt lat="44.79174" lon="3.26045">
        <ele>997.9</ele>
        <time>2021-06-05T09:52:55Z</time>
      </trkpt>
      <trkpt lat="44.79134" lon="3.26025">
        <ele>997.7</ele>
        <time>2021-06-05T09:53:25Z</time>
      </trkpt>
      <trkpt lat="44.79089" lon="3.26032">
        <ele>1000</ele>
        <time>2021-06-05T09:53:56Z</time>
      </trkpt>
      <trkpt lat="44.79047" lon="3.26047">
        <ele>1002</ele>
        <time>2021-06-05T09:54:27Z</time>
      </trkpt>
      <trkpt lat="44.79006" lon="3.26061">
        <ele>1002.9</ele>
        <time>2021-06-05T09:54:58Z</time>
      </trkpt>
      <trkpt lat="44.78963" lon="3.26077">
        <ele>1002.5</ele>
        <time>2021-06-05T09:55:29Z</time>
      </trkpt>
      <trkpt lat="44.78937" lon="3.26117">
        <ele>998.3</ele>
        <time>2021-06-05T09:56:00Z</time>
      </trkpt>
      <trkpt lat="44.78945" lon="3.26166">
        <ele>991.8</ele>
        <time>2021-06-05T09:56:30Z</time>
      </trkpt>
      <trkpt lat="44.78923" lon="3.26216">
        <ele>988.9</ele>
        <time>2021-06-05T09:57:00Z</time>
      </trkpt>
      <trkpt lat="44.78879" lon="3.2622">
        <ele>992.5</ele>
        <time>2021-06-05T09:57:31Z</time>
      </trkpt>
      <trkpt lat="44.7884" lon="3.26238">
        <ele>989.7</ele>
        <time>2021-06-05T09:58:02Z</time>
      </trkpt>
      <trkpt lat="44.78803" lon="3.2623">
        <ele>990.7</ele>
        <time>2021-06-05T09:58:32Z</time>
      </trkpt>
      <trkpt lat="44.78781" lon="3.26198">
        <ele>988.7</ele>
        <time>2021-06-05T09:59:02Z</time>
      </trkpt>
      <trkpt lat="44.78757" lon="3.26167">
        <ele>990</ele>
        <time>2021-06-05T09:59:32Z</time>
      </trkpt>
      <trkpt lat="44.78734" lon="3.26139">
        <ele>996.3</ele>
        <time>2021-06-05T10:00:03Z</time>
      </trkpt>
      <trkpt lat="44.78715" lon="3.26089">
        <ele>1003.2</ele>
        <time>2021-06-05T10:00:34Z</time>
      </trkpt>
      <trkpt lat="44.78691" lon="3.26036">
        <ele>1009.4</ele>
        <time>2021-06-05T10:01:04Z</time>
      </trkpt>
      <trkpt lat="44.78663" lon="3.25994">
        <ele>1009.5</ele>
        <time>2021-06-05T10:01:34Z</time>
      </trkpt>
      <trkpt lat="44.78632" lon="3.25952">
        <ele>1008.1</ele>
        <time>2021-06-05T10:02:05Z</time>
      </trkpt>
      <trkpt lat="44.78597" lon="3.2591">
        <ele>1010.1</ele>
        <time>2021-06-05T10:02:35Z</time>
      </trkpt>
      <trkpt lat="44.78568" lon="3.25866">
        <ele>1006.4</ele>
        <time>2021-06-05T10:03:06Z</time>
      </trkpt>
      <trkpt lat="44.78541" lon="3.25816">
        <ele>1004.2</ele>
        <time>2021-06-05T10:03:37Z</time>
      </trkpt>
      <trkpt lat="44.78528" lon="3.25764">
        <ele>1004.2</ele>
        <time>2021-06-05T10:04:07Z</time>
      </trkpt>
      <trkpt lat="44.78487" lon="3.25742">
        <ele>1004.7</ele>
        <time>2021-06-05T10:04:38Z</time>
      </trkpt>
      <trkpt lat="44.78453" lon="3.25707">
        <ele>1003.9</ele>
        <time>2021-06-05T10:05:08Z</time>
      </trkpt>
      <trkpt lat="44.78418" lon="3.25666">
        <ele>1004.8</ele>
        <time>2021-06-05T10:05:39Z</time>
      </trkpt>
      <trkpt lat="44.78379" lon="3.25645">
        <ele>1006.3</ele>
        <time>2021-06-05T10:06:10Z</time>
      </trkpt>
      <trkpt lat="44.78335" lon="3.25634">
        <ele>1008.5</ele>
        <time>2021-06-05T10:06:40Z</time>
      </trkpt>
      <trkpt lat="44.78293" lon="3.2561">
        <ele>1010</ele>
        <time>2021-06-05T10:07:11Z</time>
      </trkpt>
      <trkpt lat="44.78249" lon="3.25589">
        <ele>1006.4</ele>
        <time>2021-06-05T10:07:41Z</time>
      </trkpt>
      <trkpt lat="44.78202" lon="3.25575">
        <ele>1006.2</ele>
        <time>2021-06-05T10:08:11Z</time>
      </trkpt>
      <trkpt lat="44.78161" lon="3.25567">
        <ele>1002.6</ele>
        <time>2021-06-05T10:08:42Z</time>
      </trkpt>
      <trkpt lat="44.78134" lon="3.2556">
        <ele>1003.7</ele>
        <time>2021-06-05T10:09:13Z</time>
      </trkpt>
      <trkpt lat="44.78091" lon="3.25546">
        <ele>1000.4</ele>
        <time>2021-06-05T10:09:43Z</time>
      </trkpt>
      <trkpt lat="44.7805" lon="3.25526">
        <ele>997.4</ele>
        <time>2021-06-05T10:10:14Z</time>
      </trkpt>
      <trkpt lat="44.78016" lon="3.25515">
        <ele>995.3</ele>
        <time>2021-06-05T10:10:45Z</time>
      </trkpt>
      <trkpt lat="44.77974" lon="3.25514">
        <ele>989.1</ele>
        <time>2021-06-05T10:11:15Z</time>
      </trkpt>
      <trkpt lat="44.77956" lon="3.25513">
        <ele>991.6</ele>
        <time>2021-06-05T10:11:46Z</time>
      </trkpt>
      <trkpt lat="44.7791" lon="3.25508">
        <ele>998.4</ele>
        <time>2021-06-05T10:12:16Z</time>
      </trkpt>
      <trkpt lat="44.77868" lon="3.25509">
        <ele>998.9</ele>
        <time>2021-06-05T10:12:47Z</time>
      </trkpt>
      <trkpt lat="44.77859" lon="3.25508">
        <ele>994.9</ele>
        <time>2021-06-05T10:13:17Z</time>
      </trkpt>
      <trkpt lat="44.77814" lon="3.25515">
        <ele>987.4</ele>
        <time>2021-06-05T10:13:48Z</time>
      </trkpt>
      <trkpt lat="44.77782" lon="3.25518">
        <ele>982.5</ele>
        <time>2021-06-05T10:14:19Z</time>
      </trkpt>
      <trkpt lat="44.77739" lon="3.25529">
        <ele>982.9</ele>
        <time>2021-06-05T10:14:49Z</time>
      </trkpt>
      <trkpt lat="44.77696" lon="3.25551">
        <ele>987.8</ele>
        <time>2021-06-05T10:15:19Z</time>
      </trkpt>
      <trkpt lat="44.77656" lon="3.25545">
        <ele>982.4</ele>
        <time>2021-06-05T10:15:50Z</time>
      </trkpt>
      <trkpt lat="44.77616" lon="3.25533">
        <ele>980.1</ele>
        <time>2021-06-05T10:16:21Z</time>
      </trkpt>
      <trkpt lat="44.77582" lon="3.25499">
        <ele>972.3</ele>
        <time>2021-06-05T10:16:51Z</time>
      </trkpt>
      <trkpt lat="44.77546" lon="3.25473">
        <ele>968</ele>
        <time>2021-06-05T10:17:21Z</time>
      </trkpt>
      <trkpt lat="44.77507" lon="3.25443">
        <ele>961.8</ele>
        <time>2021-06-05T10:17:52Z</time>
      </trkpt>
      <trkpt lat="44.77471" lon="3.25431">
        <ele>965.8</ele>
        <time>2021-06-05T10:18:23Z</time>
      </trkpt>
      <trkpt lat="44.77442" lon="3.25422">
        <ele>971.3</ele>
        <time>2021-06-05T10:18:53Z</time>
      </trkpt>
      <trkpt lat="44.77409" lon="3.25406">
        <ele>977.9</ele>
        <time>2021-06-05T10:19:24Z</time>
      </trkpt>
      <trkpt lat="44.77378" lon="3.25395">
        <ele>985.7</ele>
        <time>2021-06-05T10:19:55Z</time>
      </trkpt>
      <trkpt lat="44.77341" lon="3.25395">
        <ele>991.2</ele>
        <time>2021-06-05T10:20:26Z</time>
      </trkpt>
      <trkpt lat="44.77305" lon="3.25396">
        <ele>995.5</ele>
        <time>2021-06-05T10:20:57Z</time>
      </trkpt>
      <trkpt lat="44.77278" lon="3.25376">
        <ele>1000.4</ele>
        <time>2021-06-05T10:21:28Z</time>
      </trkpt>
      <trkpt lat="44.77275" lon="3.25332">
        <ele>1001</ele>
        <time>2021-06-05T10:21:59Z</time>
      </trkpt>
      <trkpt lat="44.77297" lon="3.25318">
        <ele>1001.6</ele>
        <time>2021-06-05T10:22:30Z</time>
      </trkpt>
      <trkpt lat="44.773" lon="3.25282">
        <ele>1004.5</ele>
        <time>2021-06-05T10:23:01Z</time>
      </trkpt>
      <trkpt lat="44.77322" lon="3.25258">
        <ele>1004.5</ele>
        <time>2021-06-05T10:23:32Z</time>
      </trkpt>
      <trkpt lat="44.7733" lon="3.25249">
        <ele>1005.9</ele>
        <time>2021-06-05T10:24:02Z</time>
      </trkpt>
      <trkpt lat="44.77339" lon="3.25233">
        <ele>1007.8</ele>
        <time>2021-06-05T10:24:33Z</time>
      </trkpt>
      <trkpt lat="44.77357" lon="3.25235">
        <ele>1007.8</ele>
        <time>2021-06-05T10:25:03Z</time>
      </trkpt>
      <trkpt lat="44.77379" lon="3.25246">
        <ele>1005.8</ele>
        <time>2021-06-05T10:25:33Z</time>
      </trkpt>
      <trkpt lat="44.7737" lon="3.25249">
        <ele>1007.3</ele>
        <time>2021-06-05T10:26:25Z</time>
      </trkpt>
      <trkpt lat="44.77349" lon="3.25224">
        <ele>1005.5</ele>
        <time>2021-06-05T10:26:56Z</time>
      </trkpt>
      <trkpt lat="44.77332" lon="3.25205">
        <ele>1006.3</ele>
        <time>2021-06-05T10:27:27Z</time>
      </trkpt>
      <trkpt lat="44.77341" lon="3.25163">
        <ele>1008.5</ele>
        <time>2021-06-05T10:27:57Z</time>
      </trkpt>
      <trkpt lat="44.7736" lon="3.25114">
        <ele>1013.4</ele>
        <time>2021-06-05T10:28:28Z</time>
      </trkpt>
      <trkpt lat="44.77368" lon="3.25086">
        <ele>1012.9</ele>
        <time>2021-06-05T10:28:59Z</time>
      </trkpt>
      <trkpt lat="44.7738" lon="3.25065">
        <ele>1014.7</ele>
        <time>2021-06-05T10:29:30Z</time>
      </trkpt>
      <trkpt lat="44.77396" lon="3.25016">
        <ele>1013.4</ele>
        <time>2021-06-05T10:30:00Z</time>
      </trkpt>
      <trkpt lat="44.77411" lon="3.24959">
        <ele>1019.6</ele>
        <time>2021-06-05T10:30:31Z</time>
      </trkpt>
      <trkpt lat="44.77405" lon="3.24903">
        <ele>1029.9</ele>
        <time>2021-06-05T10:31:01Z</time>
      </trkpt>
      <trkpt lat="44.77389" lon="3.24861">
        <ele>1034.1</ele>
        <time>2021-06-05T10:31:32Z</time>
      </trkpt>
      <trkpt lat="44.77377" lon="3.24816">
        <ele>1040.9</ele>
        <time>2021-06-05T10:32:03Z</time>
      </trkpt>
      <trkpt lat="44.77366" lon="3.24763">
        <ele>1046.3</ele>
        <time>2021-06-05T10:32:34Z</time>
      </trkpt>
      <trkpt lat="44.77347" lon="3.24713">
        <ele>1044.9</ele>
        <time>2021-06-05T10:33:04Z</time>
      </trkpt>
      <trkpt lat="44.77337" lon="3.24661">
        <ele>1035.5</ele>
        <time>2021-06-05T10:33:35Z</time>
      </trkpt>
      <trkpt lat="44.77322" lon="3.24611">
        <ele>1025.9</ele>
        <time>2021-06-05T10:34:05Z</time>
      </trkpt>
      <trkpt lat="44.77296" lon="3.24566">
        <ele>1020.1</ele>
        <time>2021-06-05T10:34:35Z</time>
      </trkpt>
      <trkpt lat="44.77274" lon="3.2452">
        <ele>1016.7</ele>
        <time>2021-06-05T10:35:06Z</time>
      </trkpt>
      <trkpt lat="44.7726" lon="3.24464">
        <ele>1019.5</ele>
        <time>2021-06-05T10:35:37Z</time>
      </trkpt>
      <trkpt lat="44.77254" lon="3.24414">
        <ele>1027.6</ele>
        <time>2021-06-05T10:36:08Z</time>
      </trkpt>
      <trkpt lat="44.77236" lon="3.24371">
        <ele>1034.6</ele>
        <time>2021-06-05T10:36:38Z</time>
      </trkpt>
      <trkpt lat="44.77217" lon="3.24327">
        <ele>1038.1</ele>
        <time>2021-06-05T10:37:08Z</time>
      </trkpt>
      <trkpt lat="44.77191" lon="3.24288">
        <ele>1037</ele>
        <time>2021-06-05T10:37:39Z</time>
      </trkpt>
      <trkpt lat="44.77158" lon="3.24254">
        <ele>1043.9</ele>
        <time>2021-06-05T10:38:10Z</time>
      </trkpt>
      <trkpt lat="44.77123" lon="3.24221">
        <ele>1045.9</ele>
        <time>2021-06-05T10:38:41Z</time>
      </trkpt>
      <trkpt lat="44.77089" lon="3.2419">
        <ele>1047.2</ele>
        <time>2021-06-05T10:39:12Z</time>
      </trkpt>
      <trkpt lat="44.77055" lon="3.24157">
        <ele>1046.2</ele>
        <time>2021-06-05T10:39:42Z</time>
      </trkpt>
      <trkpt lat="44.77029" lon="3.24121">
        <ele>1043.6</ele>
        <time>2021-06-05T10:40:13Z</time>
      </trkpt>
      <trkpt lat="44.77027" lon="3.24107">
        <ele>1047.2</ele>
        <time>2021-06-05T10:41:07Z</time>
      </trkpt>
      <trkpt lat="44.77022" lon="3.24059">
        <ele>1044</ele>
        <time>2021-06-05T10:41:38Z</time>
      </trkpt>
      <trkpt lat="44.77019" lon="3.24002">
        <ele>1048.1</ele>
        <time>2021-06-05T10:42:08Z</time>
      </trkpt>
      <trkpt lat="44.77016" lon="3.23953">
        <ele>1049.1</ele>
        <time>2021-06-05T10:42:38Z</time>
      </trkpt>
      <trkpt lat="44.77015" lon="3.2394">
        <ele>1049.3</ele>
        <time>2021-06-05T10:43:11Z</time>
      </trkpt>
      <trkpt lat="44.77015" lon="3.23881">
        <ele>1049.8</ele>
        <time>2021-06-05T10:43:42Z</time>
      </trkpt>
      <trkpt lat="44.76991" lon="3.23834">
        <ele>1049.3</ele>
        <time>2021-06-05T10:44:13Z</time>
      </trkpt>
      <trkpt lat="44.76971" lon="3.23782">
        <ele>1044.3</ele>
        <time>2021-06-05T10:44:44Z</time>
      </trkpt>
      <trkpt lat="44.76941" lon="3.23749">
        <ele>1042</ele>
        <time>2021-06-05T10:45:14Z</time>
      </trkpt>
      <trkpt lat="44.76939" lon="3.23743">
        <ele>1052.8</ele>
        <time>2021-06-05T10:47:13Z</time>
      </trkpt>
      <trkpt lat="44.76939" lon="3.23743">
        <ele>1053.4</ele>
        <time>2021-06-05T10:47:44Z</time>
      </trkpt>
      <trkpt lat="44.76939" lon="3.23743">
        <ele>1052.9</ele>
        <time>2021-06-05T10:48:14Z</time>
      </trkpt>
      <trkpt lat="44.76939" lon="3.23743">
        <ele>1052.7</ele>
        <time>2021-06-05T10:48:44Z</time>
      </trkpt>
      <trkpt lat="44.76939" lon="3.23743">
        <ele>1053.3</ele>
        <time>2021-06-05T10:49:15Z</time>
      </trkpt>
      <trkpt lat="44.76939" lon="3.23743">
        <ele>1053.7</ele>
        <time>2021-06-05T10:49:45Z</time>
      </trkpt>
      <trkpt lat="44.76939" lon="3.23743">
        <ele>1052.9</ele>
        <time>2021-06-05T10:50:15Z</time>
      </trkpt>
      <trkpt lat="44.76939" lon="3.23743">
        <ele>1053.7</ele>
        <time>2021-06-05T10:50:46Z</time>
      </trkpt>
      <trkpt lat="44.76937" lon="3.2374">
        <ele>1053.6</ele>
        <time>2021-06-05T10:51:16Z</time>
      </trkpt>
      <trkpt lat="44.7693" lon="3.23691">
        <ele>1056.1</ele>
        <time>2021-06-05T10:51:47Z</time>
      </trkpt>
      <trkpt lat="44.76933" lon="3.23656">
        <ele>1059.3</ele>
        <time>2021-06-05T10:52:17Z</time>
      </trkpt>
      <trkpt lat="44.76944" lon="3.23609">
        <ele>1060.7</ele>
        <time>2021-06-05T10:52:47Z</time>
      </trkpt>
      <trkpt lat="44.76932" lon="3.2357">
        <ele>1061.1</ele>
        <time>2021-06-05T10:53:17Z</time>
      </trkpt>
      <trkpt lat="44.769" lon="3.23535">
        <ele>1064</ele>
        <time>2021-06-05T10:53:48Z</time>
      </trkpt>
      <trkpt lat="44.76873" lon="3.23505">
        <ele>1072.2</ele>
        <time>2021-06-05T10:54:18Z</time>
      </trkpt>
      <trkpt lat="44.7684" lon="3.2348">
        <ele>1077.3</ele>
        <time>2021-06-05T10:54:49Z</time>
      </trkpt>
      <trkpt lat="44.76817" lon="3.23446">
        <ele>1081.2</ele>
        <time>2021-06-05T10:55:20Z</time>
      </trkpt>
      <trkpt lat="44.76808" lon="3.23403">
        <ele>1078.6</ele>
        <time>2021-06-05T10:55:51Z</time>
      </trkpt>
      <trkpt lat="44.76827" lon="3.23364">
        <ele>1080.1</ele>
        <time>2021-06-05T10:56:22Z</time>
      </trkpt>
      <trkpt lat="44.76857" lon="3.23341">
        <ele>1080.5</ele>
        <time>2021-06-05T10:56:52Z</time>
      </trkpt>
      <trkpt lat="44.76889" lon="3.23322">
        <ele>1081.2</ele>
        <time>2021-06-05T10:57:22Z</time>
      </trkpt>
      <trkpt lat="44.76916" lon="3.23293">
        <ele>1082.7</ele>
        <time>2021-06-05T10:57:53Z</time>
      </trkpt>
      <trkpt lat="44.7692" lon="3.23264">
        <ele>1086.5</ele>
        <time>2021-06-05T10:58:24Z</time>
      </trkpt>
      <trkpt lat="44.76899" lon="3.23242">
        <ele>1089</ele>
        <time>2021-06-05T10:58:54Z</time>
      </trkpt>
      <trkpt lat="44.76884" lon="3.23214">
        <ele>1086.7</ele>
        <time>2021-06-05T10:59:24Z</time>
      </trkpt>
      <trkpt lat="44.76868" lon="3.23186">
        <ele>1087.9</ele>
        <time>2021-06-05T10:59:54Z</time>
      </trkpt>
      <trkpt lat="44.76863" lon="3.23142">
        <ele>1087.9</ele>
        <time>2021-06-05T11:00:24Z</time>
      </trkpt>
      <trkpt lat="44.76846" lon="3.23099">
        <ele>1084.6</ele>
        <time>2021-06-05T11:00:55Z</time>
      </trkpt>
      <trkpt lat="44.7683" lon="3.23054">
        <ele>1082.8</ele>
        <time>2021-06-05T11:01:25Z</time>
      </trkpt>
      <trkpt lat="44.76808" lon="3.23016">
        <ele>1079.6</ele>
        <time>2021-06-05T11:01:55Z</time>
      </trkpt>
      <trkpt lat="44.76787" lon="3.22969">
        <ele>1079.2</ele>
        <time>2021-06-05T11:02:25Z</time>
      </trkpt>
      <trkpt lat="44.76755" lon="3.22952">
        <ele>1078.7</ele>
        <time>2021-06-05T11:02:56Z</time>
      </trkpt>
      <trkpt lat="44.76717" lon="3.22928">
        <ele>1076.9</ele>
        <time>2021-06-05T11:03:26Z</time>
      </trkpt>
      <trkpt lat="44.76683" lon="3.22906">
        <ele>1073</ele>
        <time>2021-06-05T11:03:57Z</time>
      </trkpt>
      <trkpt lat="44.76658" lon="3.22874">
        <ele>1069.5</ele>
        <time>2021-06-05T11:04:27Z</time>
      </trkpt>
      <trkpt lat="44.76633" lon="3.22839">
        <ele>1065.6</ele>
        <time>2021-06-05T11:04:57Z</time>
      </trkpt>
      <trkpt lat="44.76605" lon="3.22799">
        <ele>1059.7</ele>
        <time>2021-06-05T11:05:28Z</time>
      </trkpt>
      <trkpt lat="44.76569" lon="3.22754">
        <ele>1059.8</ele>
        <time>2021-06-05T11:05:59Z</time>
      </trkpt>
      <trkpt lat="44.76547" lon="3.22736">
        <ele>1055.7</ele>
        <time>2021-06-05T11:06:29Z</time>
      </trkpt>
      <trkpt lat="44.76537" lon="3.22682">
        <ele>1074.5</ele>
        <time>2021-06-05T11:06:59Z</time>
      </trkpt>
      <trkpt lat="44.76525" lon="3.22656">
        <ele>1087.1</ele>
        <time>2021-06-05T11:07:30Z</time>
      </trkpt>
      <trkpt lat="44.76518" lon="3.22655">
        <ele>1091.7</ele>
        <time>2021-06-05T11:08:01Z</time>
      </trkpt>
      <trkpt lat="44.76508" lon="3.22623">
        <ele>1103.6</ele>
        <time>2021-06-05T11:08:32Z</time>
      </trkpt>
      <trkpt lat="44.76508" lon="3.22622">
        <ele>1102.6</ele>
        <time>2021-06-05T11:09:02Z</time>
      </trkpt>
      <trkpt lat="44.76508" lon="3.22622">
        <ele>1103.1</ele>
        <time>2021-06-05T11:09:33Z</time>
      </trkpt>
      <trkpt lat="44.76483" lon="3.22604">
        <ele>1114.9</ele>
        <time>2021-06-05T11:10:04Z</time>
      </trkpt>
      <trkpt lat="44.76453" lon="3.2257">
        <ele>1115.5</ele>
        <time>2021-06-05T11:10:34Z</time>
      </trkpt>
      <trkpt lat="44.76434" lon="3.22537">
        <ele>1115.9</ele>
        <time>2021-06-05T11:11:05Z</time>
      </trkpt>
      <trkpt lat="44.76416" lon="3.22498">
        <ele>1113.4</ele>
        <time>2021-06-05T11:11:36Z</time>
      </trkpt>
      <trkpt lat="44.76391" lon="3.22437">
        <ele>1113.6</ele>
        <time>2021-06-05T11:12:07Z</time>
      </trkpt>
      <trkpt lat="44.76366" lon="3.2239">
        <ele>1114.8</ele>
        <time>2021-06-05T11:12:38Z</time>
      </trkpt>
      <trkpt lat="44.76342" lon="3.2235">
        <ele>1112.5</ele>
        <time>2021-06-05T11:13:08Z</time>
      </trkpt>
      <trkpt lat="44.76315" lon="3.2228">
        <ele>1106.6</ele>
        <time>2021-06-05T11:13:38Z</time>
      </trkpt>
      <trkpt lat="44.76293" lon="3.22237">
        <ele>1108.5</ele>
        <time>2021-06-05T11:14:09Z</time>
      </trkpt>
      <trkpt lat="44.76269" lon="3.22186">
        <ele>1106.9</ele>
        <time>2021-06-05T11:14:40Z</time>
      </trkpt>
      <trkpt lat="44.76248" lon="3.22132">
        <ele>1110.8</ele>
        <time>2021-06-05T11:15:10Z</time>
      </trkpt>
      <trkpt lat="44.76235" lon="3.22103">
        <ele>1120.4</ele>
        <time>2021-06-05T11:15:41Z</time>
      </trkpt>
      <trkpt lat="44.76235" lon="3.22103">
        <ele>1121.1</ele>
        <time>2021-06-05T11:16:11Z</time>
      </trkpt>
      <trkpt lat="44.76225" lon="3.22081">
        <ele>1125.2</ele>
        <time>2021-06-05T11:16:41Z</time>
      </trkpt>
      <trkpt lat="44.76207" lon="3.22058">
        <ele>1124.1</ele>
        <time>2021-06-05T11:17:11Z</time>
      </trkpt>
      <trkpt lat="44.76179" lon="3.22016">
        <ele>1120.5</ele>
        <time>2021-06-05T11:17:41Z</time>
      </trkpt>
      <trkpt lat="44.76156" lon="3.21967">
        <ele>1120.8</ele>
        <time>2021-06-05T11:18:12Z</time>
      </trkpt>
      <trkpt lat="44.76121" lon="3.21926">
        <ele>1122.4</ele>
        <time>2021-06-05T11:18:43Z</time>
      </trkpt>
      <trkpt lat="44.76126" lon="3.21928">
        <ele>1124.2</ele>
        <time>2021-06-05T11:19:14Z</time>
      </trkpt>
      <trkpt lat="44.76126" lon="3.21924">
        <ele>1124.7</ele>
        <time>2021-06-05T11:19:44Z</time>
      </trkpt>
      <trkpt lat="44.76132" lon="3.21912">
        <ele>1123.8</ele>
        <time>2021-06-05T11:20:14Z</time>
      </trkpt>
      <trkpt lat="44.76117" lon="3.21907">
        <ele>1122.9</ele>
        <time>2021-06-05T11:20:45Z</time>
      </trkpt>
      <trkpt lat="44.76097" lon="3.21881">
        <ele>1118</ele>
        <time>2021-06-05T11:21:15Z</time>
      </trkpt>
      <trkpt lat="44.76066" lon="3.21875">
        <ele>1113.2</ele>
        <time>2021-06-05T11:21:46Z</time>
      </trkpt>
      <trkpt lat="44.76033" lon="3.21843">
        <ele>1108</ele>
        <time>2021-06-05T11:22:17Z</time>
      </trkpt>
      <trkpt lat="44.76002" lon="3.218">
        <ele>1103.2</ele>
        <time>2021-06-05T11:22:47Z</time>
      </trkpt>
      <trkpt lat="44.75973" lon="3.21765">
        <ele>1096.6</ele>
        <time>2021-06-05T11:23:17Z</time>
      </trkpt>
      <trkpt lat="44.75944" lon="3.21718">
        <ele>1091.3</ele>
        <time>2021-06-05T11:23:48Z</time>
      </trkpt>
      <trkpt lat="44.75917" lon="3.21671">
        <ele>1088.8</ele>
        <time>2021-06-05T11:24:18Z</time>
      </trkpt>
      <trkpt lat="44.7589" lon="3.21631">
        <ele>1087.8</ele>
        <time>2021-06-05T11:24:48Z</time>
      </trkpt>
      <trkpt lat="44.75866" lon="3.21596">
        <ele>1083.4</ele>
        <time>2021-06-05T11:25:18Z</time>
      </trkpt>
      <trkpt lat="44.75829" lon="3.21578">
        <ele>1078.6</ele>
        <time>2021-06-05T11:25:49Z</time>
      </trkpt>
      <trkpt lat="44.75792" lon="3.21557">
        <ele>1073.4</ele>
        <time>2021-06-05T11:26:20Z</time>
      </trkpt>
      <trkpt lat="44.75785" lon="3.21502">
        <ele>1069.9</ele>
        <time>2021-06-05T11:26:50Z</time>
      </trkpt>
      <trkpt lat="44.75762" lon="3.21448">
        <ele>1072.8</ele>
        <time>2021-06-05T11:27:21Z</time>
      </trkpt>
      <trkpt lat="44.75728" lon="3.21414">
        <ele>1074.3</ele>
        <time>2021-06-05T11:27:51Z</time>
      </trkpt>
      <trkpt lat="44.75698" lon="3.21382">
        <ele>1072.9</ele>
        <time>2021-06-05T11:28:22Z</time>
      </trkpt>
      <trkpt lat="44.75679" lon="3.21357">
        <ele>1075.1</ele>
        <time>2021-06-05T11:28:53Z</time>
      </trkpt>
      <trkpt lat="44.75646" lon="3.21339">
        <ele>1076.9</ele>
        <time>2021-06-05T11:29:24Z</time>
      </trkpt>
      <trkpt lat="44.75611" lon="3.21333">
        <ele>1078.3</ele>
        <time>2021-06-05T11:29:54Z</time>
      </trkpt>
      <trkpt lat="44.7557" lon="3.21326">
        <ele>1079.9</ele>
        <time>2021-06-05T11:30:25Z</time>
      </trkpt>
      <trkpt lat="44.75538" lon="3.2132">
        <ele>1083.9</ele>
        <time>2021-06-05T11:30:56Z</time>
      </trkpt>
      <trkpt lat="44.75501" lon="3.21313">
        <ele>1089.1</ele>
        <time>2021-06-05T11:31:26Z</time>
      </trkpt>
      <trkpt lat="44.75489" lon="3.21306">
        <ele>1093.2</ele>
        <time>2021-06-05T11:31:57Z</time>
      </trkpt>
      <trkpt lat="44.75462" lon="3.21279">
        <ele>1092.5</ele>
        <time>2021-06-05T11:32:27Z</time>
      </trkpt>
      <trkpt lat="44.75437" lon="3.21232">
        <ele>1091.5</ele>
        <time>2021-06-05T11:32:58Z</time>
      </trkpt>
      <trkpt lat="44.75423" lon="3.21201">
        <ele>1097.2</ele>
        <time>2021-06-05T11:33:28Z</time>
      </trkpt>
      <trkpt lat="44.75411" lon="3.21175">
        <ele>1101.3</ele>
        <time>2021-06-05T11:33:58Z</time>
      </trkpt>
      <trkpt lat="44.75411" lon="3.21179">
        <ele>1102.3</ele>
        <time>2021-06-05T11:34:29Z</time>
      </trkpt>
      <trkpt lat="44.75411" lon="3.2118">
        <ele>1103.2</ele>
        <time>2021-06-05T11:34:59Z</time>
      </trkpt>
      <trkpt lat="44.75411" lon="3.2118">
        <ele>1103.3</ele>
        <time>2021-06-05T11:35:30Z</time>
      </trkpt>
      <trkpt lat="44.75416" lon="3.21182">
        <ele>1109</ele>
        <time>2021-06-05T11:37:15Z</time>
      </trkpt>
      <trkpt lat="44.75416" lon="3.21182">
        <ele>1108.6</ele>
        <time>2021-06-05T11:37:45Z</time>
      </trkpt>
      <trkpt lat="44.75416" lon="3.21182">
        <ele>1109</ele>
        <time>2021-06-05T11:38:16Z</time>
      </trkpt>
      <trkpt lat="44.75416" lon="3.21182">
        <ele>1108.2</ele>
        <time>2021-06-05T11:38:46Z</time>
      </trkpt>
      <trkpt lat="44.75416" lon="3.21182">
        <ele>1108.6</ele>
        <time>2021-06-05T11:39:16Z</time>
      </trkpt>
      <trkpt lat="44.75416" lon="3.21182">
        <ele>1108</ele>
        <time>2021-06-05T11:39:47Z</time>
      </trkpt>
      <trkpt lat="44.75416" lon="3.21182">
        <ele>1108.4</ele>
        <time>2021-06-05T11:40:18Z</time>
      </trkpt>
      <trkpt lat="44.75392" lon="3.21172">
        <ele>1106.2</ele>
        <time>2021-06-05T11:40:48Z</time>
      </trkpt>
      <trkpt lat="44.75373" lon="3.21162">
        <ele>1103.9</ele>
        <time>2021-06-05T11:41:18Z</time>
      </trkpt>
      <trkpt lat="44.75373" lon="3.21162">
        <ele>1103.8</ele>
        <time>2021-06-05T11:41:49Z</time>
      </trkpt>
      <trkpt lat="44.75373" lon="3.21162">
        <ele>1103.8</ele>
        <time>2021-06-05T11:42:19Z</time>
      </trkpt>
      <trkpt lat="44.75373" lon="3.21163">
        <ele>1101.9</ele>
        <time>2021-06-05T11:42:50Z</time>
      </trkpt>
      <trkpt lat="44.75356" lon="3.21162">
        <ele>1103.1</ele>
        <time>2021-06-05T11:43:21Z</time>
      </trkpt>
      <trkpt lat="44.75325" lon="3.21169">
        <ele>1102.9</ele>
        <time>2021-06-05T11:43:51Z</time>
      </trkpt>
      <trkpt lat="44.75315" lon="3.21171">
        <ele>1101.6</ele>
        <time>2021-06-05T11:44:21Z</time>
      </trkpt>
      <trkpt lat="44.75291" lon="3.21191">
        <ele>1097</ele>
        <time>2021-06-05T11:44:52Z</time>
      </trkpt>
      <trkpt lat="44.75276" lon="3.21202">
        <ele>1094.7</ele>
        <time>2021-06-05T11:45:23Z</time>
      </trkpt>
      <trkpt lat="44.75269" lon="3.21205">
        <ele>1097.5</ele>
        <time>2021-06-05T11:45:53Z</time>
      </trkpt>
      <trkpt lat="44.75255" lon="3.21213">
        <ele>1095.6</ele>
        <time>2021-06-05T11:46:24Z</time>
      </trkpt>
      <trkpt lat="44.75255" lon="3.21213">
        <ele>1096.3</ele>
        <time>2021-06-05T11:46:54Z</time>
      </trkpt>
      <trkpt lat="44.75255" lon="3.21213">
        <ele>1095.9</ele>
        <time>2021-06-05T11:47:24Z</time>
      </trkpt>
      <trkpt lat="44.75253" lon="3.21216">
        <ele>1097</ele>
        <time>2021-06-05T11:47:55Z</time>
      </trkpt>
      <trkpt lat="44.75241" lon="3.21236">
        <ele>1096.3</ele>
        <time>2021-06-05T11:48:25Z</time>
      </trkpt>
      <trkpt lat="44.75238" lon="3.21241">
        <ele>1094.3</ele>
        <time>2021-06-05T11:48:55Z</time>
      </trkpt>
      <trkpt lat="44.75236" lon="3.2125">
        <ele>1094.6</ele>
        <time>2021-06-05T11:49:26Z</time>
      </trkpt>
      <trkpt lat="44.75233" lon="3.21273">
        <ele>1095.7</ele>
        <time>2021-06-05T11:49:56Z</time>
      </trkpt>
      <trkpt lat="44.75234" lon="3.21274">
        <ele>1095.4</ele>
        <time>2021-06-05T11:50:27Z</time>
      </trkpt>
      <trkpt lat="44.75234" lon="3.21274">
        <ele>1095.9</ele>
        <time>2021-06-05T11:50:59Z</time>
      </trkpt>
      <trkpt lat="44.75234" lon="3.21274">
        <ele>1094.8</ele>
        <time>2021-06-05T11:51:29Z</time>
      </trkpt>
      <trkpt lat="44.75234" lon="3.21274">
        <ele>1096.1</ele>
        <time>2021-06-05T11:51:59Z</time>
      </trkpt>
      <trkpt lat="44.75234" lon="3.21289">
        <ele>1094.7</ele>
        <time>2021-06-05T11:52:29Z</time>
      </trkpt>
      <trkpt lat="44.75241" lon="3.21333">
        <ele>1094.7</ele>
        <time>2021-06-05T11:53:00Z</time>
      </trkpt>
      <trkpt lat="44.75258" lon="3.21391">
        <ele>1095.9</ele>
        <time>2021-06-05T11:53:32Z</time>
      </trkpt>
      <trkpt lat="44.75267" lon="3.2142">
        <ele>1100.1</ele>
        <time>2021-06-05T11:54:03Z</time>
      </trkpt>
      <trkpt lat="44.75279" lon="3.21454">
        <ele>1092.7</ele>
        <time>2021-06-05T11:54:34Z</time>
      </trkpt>
      <trkpt lat="44.75284" lon="3.21514">
        <ele>1084.5</ele>
        <time>2021-06-05T11:55:05Z</time>
      </trkpt>
      <trkpt lat="44.7528" lon="3.21572">
        <ele>1076.2</ele>
        <time>2021-06-05T11:55:36Z</time>
      </trkpt>
      <trkpt lat="44.75269" lon="3.21628">
        <ele>1067.1</ele>
        <time>2021-06-05T11:56:07Z</time>
      </trkpt>
      <trkpt lat="44.7524" lon="3.21671">
        <ele>1059.2</ele>
        <time>2021-06-05T11:56:37Z</time>
      </trkpt>
      <trkpt lat="44.75207" lon="3.21708">
        <ele>1054.8</ele>
        <time>2021-06-05T11:57:08Z</time>
      </trkpt>
      <trkpt lat="44.75182" lon="3.21749">
        <ele>1049.4</ele>
        <time>2021-06-05T11:57:38Z</time>
      </trkpt>
      <trkpt lat="44.75148" lon="3.21783">
        <ele>1048.5</ele>
        <time>2021-06-05T11:58:08Z</time>
      </trkpt>
      <trkpt lat="44.75117" lon="3.21816">
        <ele>1052.1</ele>
        <time>2021-06-05T11:58:39Z</time>
      </trkpt>
      <trkpt lat="44.75081" lon="3.21855">
        <ele>1054.2</ele>
        <time>2021-06-05T11:59:10Z</time>
      </trkpt>
      <trkpt lat="44.75045" lon="3.21888">
        <ele>1057</ele>
        <time>2021-06-05T11:59:41Z</time>
      </trkpt>
      <trkpt lat="44.75011" lon="3.2192">
        <ele>1057.3</ele>
        <time>2021-06-05T12:00:12Z</time>
      </trkpt>
      <trkpt lat="44.74973" lon="3.21951">
        <ele>1060.9</ele>
        <time>2021-06-05T12:00:43Z</time>
      </trkpt>
      <trkpt lat="44.74944" lon="3.21989">
        <ele>1054.8</ele>
        <time>2021-06-05T12:01:14Z</time>
      </trkpt>
      <trkpt lat="44.74911" lon="3.22037">
        <ele>1049.4</ele>
        <time>2021-06-05T12:01:45Z</time>
      </trkpt>
      <trkpt lat="44.7488" lon="3.22079">
        <ele>1056.6</ele>
        <time>2021-06-05T12:02:16Z</time>
      </trkpt>
      <trkpt lat="44.74859" lon="3.22113">
        <ele>1107.7</ele>
        <time>2021-06-05T12:02:46Z</time>
      </trkpt>
      <trkpt lat="44.74837" lon="3.2215">
        <ele>1107.9</ele>
        <time>2021-06-05T12:03:17Z</time>
      </trkpt>
      <trkpt lat="44.74826" lon="3.22204">
        <ele>1107.9</ele>
        <time>2021-06-05T12:03:47Z</time>
      </trkpt>
      <trkpt lat="44.74824" lon="3.22244">
        <ele>1108.2</ele>
        <time>2021-06-05T12:04:17Z</time>
      </trkpt>
      <trkpt lat="44.7483" lon="3.22281">
        <ele>1108.9</ele>
        <time>2021-06-05T12:04:48Z</time>
      </trkpt>
      <trkpt lat="44.74819" lon="3.2227">
        <ele>1109.2</ele>
        <time>2021-06-05T12:05:19Z</time>
      </trkpt>
      <trkpt lat="44.74819" lon="3.2227">
        <ele>1109.3</ele>
        <time>2021-06-05T12:05:49Z</time>
      </trkpt>
      <trkpt lat="44.74821" lon="3.2226">
        <ele>1059.5</ele>
        <time>2021-06-05T12:06:19Z</time>
      </trkpt>
      <trkpt lat="44.74825" lon="3.22303">
        <ele>1056.6</ele>
        <time>2021-06-05T12:06:50Z</time>
      </trkpt>
      <trkpt lat="44.74839" lon="3.22353">
        <ele>1051.3</ele>
        <time>2021-06-05T12:07:20Z</time>
      </trkpt>
      <trkpt lat="44.74828" lon="3.22403">
        <ele>1044.3</ele>
        <time>2021-06-05T12:07:51Z</time>
      </trkpt>
      <trkpt lat="44.74818" lon="3.22434">
        <ele>1041.3</ele>
        <time>2021-06-05T12:08:21Z</time>
      </trkpt>
      <trkpt lat="44.74793" lon="3.2248">
        <ele>1043.4</ele>
        <time>2021-06-05T12:08:52Z</time>
      </trkpt>
      <trkpt lat="44.74779" lon="3.22536">
        <ele>1040.9</ele>
        <time>2021-06-05T12:09:22Z</time>
      </trkpt>
      <trkpt lat="44.74775" lon="3.22588">
        <ele>1038</ele>
        <time>2021-06-05T12:09:53Z</time>
      </trkpt>
      <trkpt lat="44.74757" lon="3.22635">
        <ele>1029.4</ele>
        <time>2021-06-05T12:10:24Z</time>
      </trkpt>
      <trkpt lat="44.74759" lon="3.22675">
        <ele>1022.1</ele>
        <time>2021-06-05T12:10:55Z</time>
      </trkpt>
      <trkpt lat="44.7478" lon="3.22697">
        <ele>1025</ele>
        <time>2021-06-05T12:11:25Z</time>
      </trkpt>
      <trkpt lat="44.74801" lon="3.22718">
        <ele>1027.3</ele>
        <time>2021-06-05T12:11:56Z</time>
      </trkpt>
      <trkpt lat="44.74811" lon="3.22726">
        <ele>1027.8</ele>
        <time>2021-06-05T12:12:27Z</time>
      </trkpt>
      <trkpt lat="44.74823" lon="3.22729">
        <ele>1026.9</ele>
        <time>2021-06-05T12:12:57Z</time>
      </trkpt>
      <trkpt lat="44.74845" lon="3.22765">
        <ele>1024</ele>
        <time>2021-06-05T12:13:28Z</time>
      </trkpt>
      <trkpt lat="44.7485" lon="3.22811">
        <ele>1022.9</ele>
        <time>2021-06-05T12:13:59Z</time>
      </trkpt>
      <trkpt lat="44.74859" lon="3.22854">
        <ele>1023.6</ele>
        <time>2021-06-05T12:14:29Z</time>
      </trkpt>
      <trkpt lat="44.74853" lon="3.22907">
        <ele>1021.5</ele>
        <time>2021-06-05T12:15:00Z</time>
      </trkpt>
      <trkpt lat="44.74858" lon="3.2295">
        <ele>1018.2</ele>
        <time>2021-06-05T12:15:30Z</time>
      </trkpt>
      <trkpt lat="44.74867" lon="3.22998">
        <ele>1015.1</ele>
        <time>2021-06-05T12:16:00Z</time>
      </trkpt>
      <trkpt lat="44.74844" lon="3.23044">
        <ele>1013.5</ele>
        <time>2021-06-05T12:16:31Z</time>
      </trkpt>
      <trkpt lat="44.7483" lon="3.23087">
        <ele>1011.1</ele>
        <time>2021-06-05T12:17:01Z</time>
      </trkpt>
      <trkpt lat="44.74827" lon="3.23124">
        <ele>1006.6</ele>
        <time>2021-06-05T12:17:32Z</time>
      </trkpt>
      <trkpt lat="44.74822" lon="3.23177">
        <ele>1007.8</ele>
        <time>2021-06-05T12:18:03Z</time>
      </trkpt>
      <trkpt lat="44.74831" lon="3.23214">
        <ele>1007.3</ele>
        <time>2021-06-05T12:18:33Z</time>
      </trkpt>
      <trkpt lat="44.7484" lon="3.23263">
        <ele>1007.4</ele>
        <time>2021-06-05T12:19:04Z</time>
      </trkpt>
      <trkpt lat="44.74863" lon="3.23302">
        <ele>1007.4</ele>
        <time>2021-06-05T12:19:35Z</time>
      </trkpt>
      <trkpt lat="44.74893" lon="3.23307">
        <ele>1006.6</ele>
        <time>2021-06-05T12:20:06Z</time>
      </trkpt>
      <trkpt lat="44.7493" lon="3.23325">
        <ele>1005.1</ele>
        <time>2021-06-05T12:20:37Z</time>
      </trkpt>
      <trkpt lat="44.74962" lon="3.23351">
        <ele>1003.5</ele>
        <time>2021-06-05T12:21:07Z</time>
      </trkpt>
      <trkpt lat="44.7499" lon="3.23373">
        <ele>1004.5</ele>
        <time>2021-06-05T12:21:37Z</time>
      </trkpt>
      <trkpt lat="44.75006" lon="3.23387">
        <ele>999</ele>
        <time>2021-06-05T12:22:07Z</time>
      </trkpt>
      <trkpt lat="44.75018" lon="3.23416">
        <ele>1001.4</ele>
        <time>2021-06-05T12:22:37Z</time>
      </trkpt>
      <trkpt lat="44.75018" lon="3.23451">
        <ele>1001.4</ele>
        <time>2021-06-05T12:23:08Z</time>
      </trkpt>
      <trkpt lat="44.74994" lon="3.23494">
        <ele>984.3</ele>
        <time>2021-06-05T12:23:38Z</time>
      </trkpt>
      <trkpt lat="44.74975" lon="3.23537">
        <ele>986.1</ele>
        <time>2021-06-05T12:24:09Z</time>
      </trkpt>
      <trkpt lat="44.74973" lon="3.23545">
        <ele>981.4</ele>
        <time>2021-06-05T12:24:40Z</time>
      </trkpt>
      <trkpt lat="44.74972" lon="3.23561">
        <ele>981.1</ele>
        <time>2021-06-05T12:25:11Z</time>
      </trkpt>
      <trkpt lat="44.7497" lon="3.23574">
        <ele>986.6</ele>
        <time>2021-06-05T12:25:41Z</time>
      </trkpt>
      <trkpt lat="44.74966" lon="3.23636">
        <ele>989.5</ele>
        <time>2021-06-05T12:26:11Z</time>
      </trkpt>
      <trkpt lat="44.74973" lon="3.2369">
        <ele>981.7</ele>
        <time>2021-06-05T12:26:42Z</time>
      </trkpt>
      <trkpt lat="44.74976" lon="3.23744">
        <ele>979.8</ele>
        <time>2021-06-05T12:27:12Z</time>
      </trkpt>
      <trkpt lat="44.74969" lon="3.23792">
        <ele>983.1</ele>
        <time>2021-06-05T12:27:42Z</time>
      </trkpt>
      <trkpt lat="44.7494" lon="3.23847">
        <ele>981.4</ele>
        <time>2021-06-05T12:28:13Z</time>
      </trkpt>
      <trkpt lat="44.74929" lon="3.23874">
        <ele>985.4</ele>
        <time>2021-06-05T12:28:44Z</time>
      </trkpt>
      <trkpt lat="44.74926" lon="3.23882">
        <ele>985.1</ele>
        <time>2021-06-05T12:29:14Z</time>
      </trkpt>
      <trkpt lat="44.74947" lon="3.23935">
        <ele>987.2</ele>
        <time>2021-06-05T12:29:45Z</time>
      </trkpt>
      <trkpt lat="44.74971" lon="3.23976">
        <ele>983.4</ele>
        <time>2021-06-05T12:30:16Z</time>
      </trkpt>
      <trkpt lat="44.74988" lon="3.24028">
        <ele>977.2</ele>
        <time>2021-06-05T12:30:46Z</time>
      </trkpt>
      <trkpt lat="44.75" lon="3.24085">
        <ele>973.3</ele>
        <time>2021-06-05T12:31:16Z</time>
      </trkpt>
      <trkpt lat="44.75" lon="3.24154">
        <ele>974.4</ele>
        <time>2021-06-05T12:31:46Z</time>
      </trkpt>
      <trkpt lat="44.74991" lon="3.24208">
        <ele>972.3</ele>
        <time>2021-06-05T12:32:17Z</time>
      </trkpt>
      <trkpt lat="44.74991" lon="3.24233">
        <ele>972.7</ele>
        <time>2021-06-05T12:32:47Z</time>
      </trkpt>
      <trkpt lat="44.75008" lon="3.24279">
        <ele>973.8</ele>
        <time>2021-06-05T12:33:17Z</time>
      </trkpt>
      <trkpt lat="44.75023" lon="3.24334">
        <ele>973.3</ele>
        <time>2021-06-05T12:33:48Z</time>
      </trkpt>
      <trkpt lat="44.75024" lon="3.24351">
        <ele>968.9</ele>
        <time>2021-06-05T12:34:19Z</time>
      </trkpt>
      <trkpt lat="44.75024" lon="3.24353">
        <ele>972.4</ele>
        <time>2021-06-05T12:34:49Z</time>
      </trkpt>
      <trkpt lat="44.75023" lon="3.24354">
        <ele>966.8</ele>
        <time>2021-06-05T12:35:20Z</time>
      </trkpt>
      <trkpt lat="44.75029" lon="3.24389">
        <ele>969.1</ele>
        <time>2021-06-05T12:35:51Z</time>
      </trkpt>
      <trkpt lat="44.75011" lon="3.2445">
        <ele>970.6</ele>
        <time>2021-06-05T12:36:22Z</time>
      </trkpt>
      <trkpt lat="44.74991" lon="3.24503">
        <ele>973.8</ele>
        <time>2021-06-05T12:36:52Z</time>
      </trkpt>
      <trkpt lat="44.74966" lon="3.24555">
        <ele>973.9</ele>
        <time>2021-06-05T12:37:22Z</time>
      </trkpt>
      <trkpt lat="44.74937" lon="3.24603">
        <ele>972.8</ele>
        <time>2021-06-05T12:37:52Z</time>
      </trkpt>
      <trkpt lat="44.74926" lon="3.24651">
        <ele>972.1</ele>
        <time>2021-06-05T12:38:22Z</time>
      </trkpt>
      <trkpt lat="44.74924" lon="3.24705">
        <ele>971.8</ele>
        <time>2021-06-05T12:38:53Z</time>
      </trkpt>
      <trkpt lat="44.74912" lon="3.24728">
        <ele>972.6</ele>
        <time>2021-06-05T12:39:23Z</time>
      </trkpt>
      <trkpt lat="44.74913" lon="3.2472">
        <ele>973.3</ele>
        <time>2021-06-05T12:39:54Z</time>
      </trkpt>
      <trkpt lat="44.74912" lon="3.24728">
        <ele>973.3</ele>
        <time>2021-06-05T12:40:25Z</time>
      </trkpt>
      <trkpt lat="44.74908" lon="3.24776">
        <ele>972</ele>
        <time>2021-06-05T12:40:56Z</time>
      </trkpt>
      <trkpt lat="44.74907" lon="3.24778">
        <ele>974.6</ele>
        <time>2021-06-05T12:41:27Z</time>
      </trkpt>
      <trkpt lat="44.74907" lon="3.24779">
        <ele>974.1</ele>
        <time>2021-06-05T12:41:57Z</time>
      </trkpt>
      <trkpt lat="44.74906" lon="3.24799">
        <ele>975</ele>
        <time>2021-06-05T12:42:28Z</time>
      </trkpt>
      <trkpt lat="44.74903" lon="3.24845">
        <ele>972</ele>
        <time>2021-06-05T12:42:59Z</time>
      </trkpt>
      <trkpt lat="44.74901" lon="3.24846">
        <ele>972.1</ele>
        <time>2021-06-05T12:43:29Z</time>
      </trkpt>
      <trkpt lat="44.74899" lon="3.24876">
        <ele>971.7</ele>
        <time>2021-06-05T12:44:00Z</time>
      </trkpt>
      <trkpt lat="44.74895" lon="3.24887">
        <ele>965.9</ele>
        <time>2021-06-05T12:44:31Z</time>
      </trkpt>
      <trkpt lat="44.74895" lon="3.24889">
        <ele>966.7</ele>
        <time>2021-06-05T12:45:02Z</time>
      </trkpt>
      <trkpt lat="44.74887" lon="3.24914">
        <ele>966.1</ele>
        <time>2021-06-05T12:45:33Z</time>
      </trkpt>
      <trkpt lat="44.74888" lon="3.24965">
        <ele>962</ele>
        <time>2021-06-05T12:46:04Z</time>
      </trkpt>
      <trkpt lat="44.7489" lon="3.25012">
        <ele>962.9</ele>
        <time>2021-06-05T12:46:34Z</time>
      </trkpt>
      <trkpt lat="44.74897" lon="3.25049">
        <ele>968.5</ele>
        <time>2021-06-05T12:47:05Z</time>
      </trkpt>
      <trkpt lat="44.74931" lon="3.25054">
        <ele>970.5</ele>
        <time>2021-06-05T12:47:35Z</time>
      </trkpt>
      <trkpt lat="44.74971" lon="3.25053">
        <ele>972.2</ele>
        <time>2021-06-05T12:48:06Z</time>
      </trkpt>
      <trkpt lat="44.74961" lon="3.25057">
        <ele>969.9</ele>
        <time>2021-06-05T12:48:36Z</time>
      </trkpt>
      <trkpt lat="44.74918" lon="3.25076">
        <ele>968.8</ele>
        <time>2021-06-05T12:49:07Z</time>
      </trkpt>
      <trkpt lat="44.74882" lon="3.25085">
        <ele>967</ele>
        <time>2021-06-05T12:49:37Z</time>
      </trkpt>
      <trkpt lat="44.74857" lon="3.25092">
        <ele>961.3</ele>
        <time>2021-06-05T12:50:07Z</time>
      </trkpt>
      <trkpt lat="44.74851" lon="3.25089">
        <ele>1024.3</ele>
        <time>2021-06-05T12:50:38Z</time>
      </trkpt>
      <trkpt lat="44.74816" lon="3.25083">
        <ele>1024.5</ele>
        <time>2021-06-05T12:51:08Z</time>
      </trkpt>
      <trkpt lat="44.74796" lon="3.2509">
        <ele>1024.5</ele>
        <time>2021-06-05T12:51:39Z</time>
      </trkpt>
      <trkpt lat="44.74758" lon="3.25099">
        <ele>967.1</ele>
        <time>2021-06-05T12:52:10Z</time>
      </trkpt>
      <trkpt lat="44.74725" lon="3.25121">
        <ele>965.5</ele>
        <time>2021-06-05T12:52:41Z</time>
      </trkpt>
      <trkpt lat="44.7469" lon="3.25142">
        <ele>971.3</ele>
        <time>2021-06-05T12:53:11Z</time>
      </trkpt>
      <trkpt lat="44.74652" lon="3.25163">
        <ele>975.7</ele>
        <time>2021-06-05T12:53:41Z</time>
      </trkpt>
      <trkpt lat="44.74614" lon="3.25175">
        <ele>974.7</ele>
        <time>2021-06-05T12:54:12Z</time>
      </trkpt>
      <trkpt lat="44.74588" lon="3.25215">
        <ele>967.1</ele>
        <time>2021-06-05T12:54:43Z</time>
      </trkpt>
      <trkpt lat="44.74573" lon="3.25263">
        <ele>971.5</ele>
        <time>2021-06-05T12:55:13Z</time>
      </trkpt>
      <trkpt lat="44.74574" lon="3.25267">
        <ele>971.8</ele>
        <time>2021-06-05T12:55:43Z</time>
      </trkpt>
      <trkpt lat="44.74543" lon="3.25309">
        <ele>973.5</ele>
        <time>2021-06-05T12:56:13Z</time>
      </trkpt>
      <trkpt lat="44.74511" lon="3.25336">
        <ele>977.4</ele>
        <time>2021-06-05T12:56:44Z</time>
      </trkpt>
      <trkpt lat="44.74477" lon="3.25358">
        <ele>983</ele>
        <time>2021-06-05T12:57:14Z</time>
      </trkpt>
      <trkpt lat="44.7444" lon="3.25364">
        <ele>984.9</ele>
        <time>2021-06-05T12:57:45Z</time>
      </trkpt>
      <trkpt lat="44.74431" lon="3.25383">
        <ele>984.3</ele>
        <time>2021-06-05T12:58:16Z</time>
      </trkpt>
      <trkpt lat="44.74444" lon="3.25418">
        <ele>986.4</ele>
        <time>2021-06-05T12:58:47Z</time>
      </trkpt>
      <trkpt lat="44.7443" lon="3.25459">
        <ele>988.9</ele>
        <time>2021-06-05T12:59:18Z</time>
      </trkpt>
      <trkpt lat="44.74409" lon="3.25492">
        <ele>991.1</ele>
        <time>2021-06-05T12:59:48Z</time>
      </trkpt>
      <trkpt lat="44.74384" lon="3.25515">
        <ele>994.9</ele>
        <time>2021-06-05T13:00:18Z</time>
      </trkpt>
      <trkpt lat="44.74365" lon="3.25546">
        <ele>1000.3</ele>
        <time>2021-06-05T13:00:49Z</time>
      </trkpt>
      <trkpt lat="44.74349" lon="3.25583">
        <ele>1002</ele>
        <time>2021-06-05T13:01:20Z</time>
      </trkpt>
      <trkpt lat="44.7433" lon="3.25611">
        <ele>1005.1</ele>
        <time>2021-06-05T13:01:50Z</time>
      </trkpt>
      <trkpt lat="44.74296" lon="3.25636">
        <ele>1013.1</ele>
        <time>2021-06-05T13:02:21Z</time>
      </trkpt>
      <trkpt lat="44.74294" lon="3.2564">
        <ele>1015</ele>
        <time>2021-06-05T13:02:52Z</time>
      </trkpt>
      <trkpt lat="44.74295" lon="3.25638">
        <ele>1015.8</ele>
        <time>2021-06-05T13:03:23Z</time>
      </trkpt>
      <trkpt lat="44.74298" lon="3.25627">
        <ele>1013.5</ele>
        <time>2021-06-05T13:05:24Z</time>
      </trkpt>
      <trkpt lat="44.74293" lon="3.25637">
        <ele>1018.9</ele>
        <time>2021-06-05T13:07:26Z</time>
      </trkpt>
      <trkpt lat="44.74302" lon="3.2564">
        <ele>1018.2</ele>
        <time>2021-06-05T13:08:38Z</time>
      </trkpt>
      <trkpt lat="44.74293" lon="3.25635">
        <ele>1014.3</ele>
        <time>2021-06-05T13:09:08Z</time>
      </trkpt>
      <trkpt lat="44.74302" lon="3.25638">
        <ele>1023.4</ele>
        <time>2021-06-05T13:10:46Z</time>
      </trkpt>
      <trkpt lat="44.74297" lon="3.25627">
        <ele>1020.1</ele>
        <time>2021-06-05T13:11:53Z</time>
      </trkpt>
      <trkpt lat="44.74296" lon="3.25639">
        <ele>1019</ele>
        <time>2021-06-05T13:12:45Z</time>
      </trkpt>
      <trkpt lat="44.7429" lon="3.25629">
        <ele>1023.2</ele>
        <time>2021-06-05T13:13:47Z</time>
      </trkpt>
      <trkpt lat="44.74297" lon="3.25637">
        <ele>1018.3</ele>
        <time>2021-06-05T13:15:38Z</time>
      </trkpt>
      <trkpt lat="44.74293" lon="3.25625">
        <ele>1022.4</ele>
        <time>2021-06-05T13:16:44Z</time>
      </trkpt>
      <trkpt lat="44.74297" lon="3.25612">
        <ele>1019.1</ele>
        <time>2021-06-05T13:17:43Z</time>
      </trkpt>
      <trkpt lat="44.74294" lon="3.25644">
        <ele>1022.4</ele>
        <time>2021-06-05T13:18:14Z</time>
      </trkpt>
      <trkpt lat="44.74297" lon="3.25624">
        <ele>1009.8</ele>
        <time>2021-06-05T13:18:45Z</time>
      </trkpt>
      <trkpt lat="44.74285" lon="3.25615">
        <ele>1015</ele>
        <time>2021-06-05T13:19:15Z</time>
      </trkpt>
      <trkpt lat="44.74296" lon="3.25635">
        <ele>1012.1</ele>
        <time>2021-06-05T13:19:45Z</time>
      </trkpt>
      <trkpt lat="44.74296" lon="3.25622">
        <ele>1016.1</ele>
        <time>2021-06-05T13:20:24Z</time>
      </trkpt>
      <trkpt lat="44.74294" lon="3.25635">
        <ele>1021</ele>
        <time>2021-06-05T13:20:55Z</time>
      </trkpt>
      <trkpt lat="44.74289" lon="3.25623">
        <ele>1032.7</ele>
        <time>2021-06-05T13:21:48Z</time>
      </trkpt>
      <trkpt lat="44.74291" lon="3.25636">
        <ele>1022.7</ele>
        <time>2021-06-05T13:22:25Z</time>
      </trkpt>
      <trkpt lat="44.74298" lon="3.25626">
        <ele>1017.1</ele>
        <time>2021-06-05T13:24:17Z</time>
      </trkpt>
      <trkpt lat="44.7429" lon="3.25637">
        <ele>1017.3</ele>
        <time>2021-06-05T13:24:48Z</time>
      </trkpt>
      <trkpt lat="44.74274" lon="3.25634">
        <ele>1018.1</ele>
        <time>2021-06-05T13:25:18Z</time>
      </trkpt>
      <trkpt lat="44.74247" lon="3.25654">
        <ele>1018</ele>
        <time>2021-06-05T13:25:49Z</time>
      </trkpt>
      <trkpt lat="44.74225" lon="3.25673">
        <ele>1015.1</ele>
        <time>2021-06-05T13:26:20Z</time>
      </trkpt>
      <trkpt lat="44.74198" lon="3.25702">
        <ele>1012.2</ele>
        <time>2021-06-05T13:26:51Z</time>
      </trkpt>
      <trkpt lat="44.74172" lon="3.25734">
        <ele>1010.3</ele>
        <time>2021-06-05T13:27:22Z</time>
      </trkpt>
      <trkpt lat="44.74151" lon="3.25766">
        <ele>1006.1</ele>
        <time>2021-06-05T13:27:53Z</time>
      </trkpt>
      <trkpt lat="44.74135" lon="3.25801">
        <ele>1002.1</ele>
        <time>2021-06-05T13:28:23Z</time>
      </trkpt>
      <trkpt lat="44.74126" lon="3.2584">
        <ele>1001.7</ele>
        <time>2021-06-05T13:28:53Z</time>
      </trkpt>
      <trkpt lat="44.74128" lon="3.2589">
        <ele>999.8</ele>
        <time>2021-06-05T13:29:23Z</time>
      </trkpt>
      <trkpt lat="44.74132" lon="3.25934">
        <ele>994.4</ele>
        <time>2021-06-05T13:29:53Z</time>
      </trkpt>
      <trkpt lat="44.74125" lon="3.25981">
        <ele>991.4</ele>
        <time>2021-06-05T13:30:23Z</time>
      </trkpt>
      <trkpt lat="44.74123" lon="3.26021">
        <ele>990.8</ele>
        <time>2021-06-05T13:30:54Z</time>
      </trkpt>
      <trkpt lat="44.74122" lon="3.26066">
        <ele>987.1</ele>
        <time>2021-06-05T13:31:25Z</time>
      </trkpt>
      <trkpt lat="44.74136" lon="3.26115">
        <ele>989.1</ele>
        <time>2021-06-05T13:31:56Z</time>
      </trkpt>
      <trkpt lat="44.74139" lon="3.26165">
        <ele>990.1</ele>
        <time>2021-06-05T13:32:26Z</time>
      </trkpt>
      <trkpt lat="44.74126" lon="3.26222">
        <ele>986</ele>
        <time>2021-06-05T13:32:57Z</time>
      </trkpt>
      <trkpt lat="44.74125" lon="3.26278">
        <ele>982.6</ele>
        <time>2021-06-05T13:33:27Z</time>
      </trkpt>
      <trkpt lat="44.74131" lon="3.2633">
        <ele>980.6</ele>
        <time>2021-06-05T13:33:58Z</time>
      </trkpt>
      <trkpt lat="44.7413" lon="3.26334">
        <ele>983.7</ele>
        <time>2021-06-05T13:34:51Z</time>
      </trkpt>
      <trkpt lat="44.74135" lon="3.26346">
        <ele>982.4</ele>
        <time>2021-06-05T13:35:30Z</time>
      </trkpt>
      <trkpt lat="44.74149" lon="3.264">
        <ele>978.7</ele>
        <time>2021-06-05T13:36:00Z</time>
      </trkpt>
      <trkpt lat="44.74158" lon="3.26441">
        <ele>979</ele>
        <time>2021-06-05T13:36:31Z</time>
      </trkpt>
      <trkpt lat="44.7416" lon="3.26454">
        <ele>983.4</ele>
        <time>2021-06-05T13:37:34Z</time>
      </trkpt>
      <trkpt lat="44.74169" lon="3.26499">
        <ele>980.5</ele>
        <time>2021-06-05T13:38:04Z</time>
      </trkpt>
      <trkpt lat="44.74184" lon="3.26548">
        <ele>979</ele>
        <time>2021-06-05T13:38:35Z</time>
      </trkpt>
      <trkpt lat="44.74192" lon="3.26582">
        <ele>982.1</ele>
        <time>2021-06-05T13:39:05Z</time>
      </trkpt>
      <trkpt lat="44.74209" lon="3.26628">
        <ele>982.4</ele>
        <time>2021-06-05T13:39:35Z</time>
      </trkpt>
      <trkpt lat="44.74238" lon="3.26662">
        <ele>976.7</ele>
        <time>2021-06-05T13:40:06Z</time>
      </trkpt>
      <trkpt lat="44.74251" lon="3.26701">
        <ele>978.4</ele>
        <time>2021-06-05T13:40:37Z</time>
      </trkpt>
      <trkpt lat="44.74228" lon="3.26739">
        <ele>981.4</ele>
        <time>2021-06-05T13:41:07Z</time>
      </trkpt>
      <trkpt lat="44.74201" lon="3.26768">
        <ele>977.2</ele>
        <time>2021-06-05T13:41:37Z</time>
      </trkpt>
      <trkpt lat="44.74165" lon="3.26784">
        <ele>972</ele>
        <time>2021-06-05T13:42:08Z</time>
      </trkpt>
      <trkpt lat="44.74144" lon="3.2683">
        <ele>971.5</ele>
        <time>2021-06-05T13:42:39Z</time>
      </trkpt>
      <trkpt lat="44.7412" lon="3.26867">
        <ele>970.2</ele>
        <time>2021-06-05T13:43:09Z</time>
      </trkpt>
      <trkpt lat="44.74102" lon="3.26899">
        <ele>971.3</ele>
        <time>2021-06-05T13:43:39Z</time>
      </trkpt>
      <trkpt lat="44.74073" lon="3.26936">
        <ele>968.8</ele>
        <time>2021-06-05T13:44:10Z</time>
      </trkpt>
      <trkpt lat="44.74065" lon="3.26976">
        <ele>964.4</ele>
        <time>2021-06-05T13:44:41Z</time>
      </trkpt>
      <trkpt lat="44.74062" lon="3.27027">
        <ele>962.7</ele>
        <time>2021-06-05T13:45:11Z</time>
      </trkpt>
      <trkpt lat="44.7405" lon="3.27076">
        <ele>959.7</ele>
        <time>2021-06-05T13:45:42Z</time>
      </trkpt>
      <trkpt lat="44.74034" lon="3.27123">
        <ele>958.9</ele>
        <time>2021-06-05T13:46:13Z</time>
      </trkpt>
      <trkpt lat="44.74022" lon="3.27166">
        <ele>954</ele>
        <time>2021-06-05T13:46:43Z</time>
      </trkpt>
      <trkpt lat="44.7401" lon="3.27214">
        <ele>950.6</ele>
        <time>2021-06-05T13:47:14Z</time>
      </trkpt>
      <trkpt lat="44.73994" lon="3.27253">
        <ele>946.8</ele>
        <time>2021-06-05T13:47:44Z</time>
      </trkpt>
      <trkpt lat="44.73969" lon="3.27288">
        <ele>945.2</ele>
        <time>2021-06-05T13:48:15Z</time>
      </trkpt>
      <trkpt lat="44.73953" lon="3.273">
        <ele>943.7</ele>
        <time>2021-06-05T13:48:46Z</time>
      </trkpt>
      <trkpt lat="44.73919" lon="3.27312">
        <ele>942.6</ele>
        <time>2021-06-05T13:49:17Z</time>
      </trkpt>
      <trkpt lat="44.73882" lon="3.2732">
        <ele>941.8</ele>
        <time>2021-06-05T13:49:48Z</time>
      </trkpt>
      <trkpt lat="44.73854" lon="3.27337">
        <ele>945.1</ele>
        <time>2021-06-05T13:50:19Z</time>
      </trkpt>
      <trkpt lat="44.73832" lon="3.27361">
        <ele>947.6</ele>
        <time>2021-06-05T13:50:49Z</time>
      </trkpt>
      <trkpt lat="44.73798" lon="3.27374">
        <ele>951.2</ele>
        <time>2021-06-05T13:51:20Z</time>
      </trkpt>
      <trkpt lat="44.73771" lon="3.27385">
        <ele>955.5</ele>
        <time>2021-06-05T13:51:51Z</time>
      </trkpt>
      <trkpt lat="44.73754" lon="3.27392">
        <ele>958.9</ele>
        <time>2021-06-05T13:52:22Z</time>
      </trkpt>
      <trkpt lat="44.73719" lon="3.27406">
        <ele>961.5</ele>
        <time>2021-06-05T13:52:53Z</time>
      </trkpt>
      <trkpt lat="44.7368" lon="3.27411">
        <ele>967</ele>
        <time>2021-06-05T13:53:24Z</time>
      </trkpt>
      <trkpt lat="44.73653" lon="3.2741">
        <ele>965.2</ele>
        <time>2021-06-05T13:53:54Z</time>
      </trkpt>
      <trkpt lat="44.73616" lon="3.2741">
        <ele>965.8</ele>
        <time>2021-06-05T13:54:24Z</time>
      </trkpt>
      <trkpt lat="44.73607" lon="3.27412">
        <ele>964.7</ele>
        <time>2021-06-05T13:55:40Z</time>
      </trkpt>
      <trkpt lat="44.73569" lon="3.2742">
        <ele>966.5</ele>
        <time>2021-06-05T13:56:11Z</time>
      </trkpt>
      <trkpt lat="44.73532" lon="3.27431">
        <ele>969.2</ele>
        <time>2021-06-05T13:56:41Z</time>
      </trkpt>
      <trkpt lat="44.73494" lon="3.27447">
        <ele>969.7</ele>
        <time>2021-06-05T13:57:12Z</time>
      </trkpt>
      <trkpt lat="44.73464" lon="3.27479">
        <ele>969.1</ele>
        <time>2021-06-05T13:57:42Z</time>
      </trkpt>
      <trkpt lat="44.73449" lon="3.27527">
        <ele>972.2</ele>
        <time>2021-06-05T13:58:12Z</time>
      </trkpt>
      <trkpt lat="44.73446" lon="3.27578">
        <ele>973.5</ele>
        <time>2021-06-05T13:58:43Z</time>
      </trkpt>
      <trkpt lat="44.73432" lon="3.27629">
        <ele>973.4</ele>
        <time>2021-06-05T13:59:14Z</time>
      </trkpt>
      <trkpt lat="44.73407" lon="3.27664">
        <ele>972.5</ele>
        <time>2021-06-05T13:59:44Z</time>
      </trkpt>
      <trkpt lat="44.73399" lon="3.27672">
        <ele>973.8</ele>
        <time>2021-06-05T14:00:15Z</time>
      </trkpt>
      <trkpt lat="44.73372" lon="3.27695">
        <ele>974</ele>
        <time>2021-06-05T14:00:45Z</time>
      </trkpt>
      <trkpt lat="44.73354" lon="3.27699">
        <ele>976.5</ele>
        <time>2021-06-05T14:01:16Z</time>
      </trkpt>
      <trkpt lat="44.73322" lon="3.2772">
        <ele>971.4</ele>
        <time>2021-06-05T14:01:47Z</time>
      </trkpt>
      <trkpt lat="44.73312" lon="3.27716">
        <ele>970.6</ele>
        <time>2021-06-05T14:02:27Z</time>
      </trkpt>
      <trkpt lat="44.73272" lon="3.27708">
        <ele>970.6</ele>
        <time>2021-06-05T14:02:57Z</time>
      </trkpt>
      <trkpt lat="44.73259" lon="3.27706">
        <ele>969.5</ele>
        <time>2021-06-05T14:03:28Z</time>
      </trkpt>
      <trkpt lat="44.73227" lon="3.27684">
        <ele>965.4</ele>
        <time>2021-06-05T14:03:58Z</time>
      </trkpt>
      <trkpt lat="44.7319" lon="3.27677">
        <ele>962.2</ele>
        <time>2021-06-05T14:04:29Z</time>
      </trkpt>
      <trkpt lat="44.73153" lon="3.2768">
        <ele>955</ele>
        <time>2021-06-05T14:05:00Z</time>
      </trkpt>
      <trkpt lat="44.73118" lon="3.27702">
        <ele>955.7</ele>
        <time>2021-06-05T14:05:30Z</time>
      </trkpt>
      <trkpt lat="44.73083" lon="3.27699">
        <ele>953.5</ele>
        <time>2021-06-05T14:06:01Z</time>
      </trkpt>
      <trkpt lat="44.73074" lon="3.27693">
        <ele>954.9</ele>
        <time>2021-06-05T14:07:59Z</time>
      </trkpt>
      <trkpt lat="44.73068" lon="3.27684">
        <ele>953.2</ele>
        <time>2021-06-05T14:08:44Z</time>
      </trkpt>
      <trkpt lat="44.73034" lon="3.27666">
        <ele>952.4</ele>
        <time>2021-06-05T14:09:15Z</time>
      </trkpt>
      <trkpt lat="44.73018" lon="3.27665">
        <ele>949.4</ele>
        <time>2021-06-05T14:09:45Z</time>
      </trkpt>
      <trkpt lat="44.72983" lon="3.27663">
        <ele>952.4</ele>
        <time>2021-06-05T14:10:16Z</time>
      </trkpt>
      <trkpt lat="44.72961" lon="3.27654">
        <ele>958</ele>
        <time>2021-06-05T14:10:46Z</time>
      </trkpt>
      <trkpt lat="44.72936" lon="3.27641">
        <ele>963.2</ele>
        <time>2021-06-05T14:11:17Z</time>
      </trkpt>
      <trkpt lat="44.72926" lon="3.27638">
        <ele>964.2</ele>
        <time>2021-06-05T14:11:57Z</time>
      </trkpt>
      <trkpt lat="44.72893" lon="3.27624">
        <ele>961.1</ele>
        <time>2021-06-05T14:12:27Z</time>
      </trkpt>
      <trkpt lat="44.72857" lon="3.27607">
        <ele>961.6</ele>
        <time>2021-06-05T14:12:57Z</time>
      </trkpt>
      <trkpt lat="44.72821" lon="3.27594">
        <ele>960.9</ele>
        <time>2021-06-05T14:13:28Z</time>
      </trkpt>
      <trkpt lat="44.72786" lon="3.27577">
        <ele>957.2</ele>
        <time>2021-06-05T14:13:59Z</time>
      </trkpt>
      <trkpt lat="44.72776" lon="3.2758">
        <ele>960.5</ele>
        <time>2021-06-05T14:16:49Z</time>
      </trkpt>
      <trkpt lat="44.72751" lon="3.27614">
        <ele>958.1</ele>
        <time>2021-06-05T14:17:20Z</time>
      </trkpt>
      <trkpt lat="44.72739" lon="3.2766">
        <ele>957.7</ele>
        <time>2021-06-05T14:17:50Z</time>
      </trkpt>
      <trkpt lat="44.72737" lon="3.27686">
        <ele>956.5</ele>
        <time>2021-06-05T14:18:20Z</time>
      </trkpt>
      <trkpt lat="44.72731" lon="3.27696">
        <ele>955</ele>
        <time>2021-06-05T14:19:04Z</time>
      </trkpt>
      <trkpt lat="44.72727" lon="3.27708">
        <ele>956.7</ele>
        <time>2021-06-05T14:19:55Z</time>
      </trkpt>
      <trkpt lat="44.72708" lon="3.27755">
        <ele>957.6</ele>
        <time>2021-06-05T14:20:26Z</time>
      </trkpt>
      <trkpt lat="44.72687" lon="3.27794">
        <ele>960.1</ele>
        <time>2021-06-05T14:20:57Z</time>
      </trkpt>
      <trkpt lat="44.7266" lon="3.27827">
        <ele>963.2</ele>
        <time>2021-06-05T14:21:27Z</time>
      </trkpt>
      <trkpt lat="44.72632" lon="3.27862">
        <ele>963.8</ele>
        <time>2021-06-05T14:21:58Z</time>
      </trkpt>
      <trkpt lat="44.72606" lon="3.27897">
        <ele>965.4</ele>
        <time>2021-06-05T14:22:29Z</time>
      </trkpt>
      <trkpt lat="44.72585" lon="3.27925">
        <ele>962</ele>
        <time>2021-06-05T14:23:00Z</time>
      </trkpt>
      <trkpt lat="44.72547" lon="3.27947">
        <ele>965.3</ele>
        <time>2021-06-05T14:23:31Z</time>
      </trkpt>
      <trkpt lat="44.72516" lon="3.2796">
        <ele>962</ele>
        <time>2021-06-05T14:24:01Z</time>
      </trkpt>
      <trkpt lat="44.72497" lon="3.27962">
        <ele>963.6</ele>
        <time>2021-06-05T14:24:32Z</time>
      </trkpt>
      <trkpt lat="44.72463" lon="3.27956">
        <ele>962.1</ele>
        <time>2021-06-05T14:25:03Z</time>
      </trkpt>
      <trkpt lat="44.72429" lon="3.27945">
        <ele>962</ele>
        <time>2021-06-05T14:25:34Z</time>
      </trkpt>
      <trkpt lat="44.7242" lon="3.27947">
        <ele>961.6</ele>
        <time>2021-06-05T14:26:06Z</time>
      </trkpt>
      <trkpt lat="44.72414" lon="3.27962">
        <ele>962.5</ele>
        <time>2021-06-05T14:26:37Z</time>
      </trkpt>
      <trkpt lat="44.72404" lon="3.27961">
        <ele>959.7</ele>
        <time>2021-06-05T14:33:13Z</time>
      </trkpt>
      <trkpt lat="44.72395" lon="3.27967">
        <ele>959.8</ele>
        <time>2021-06-05T14:35:58Z</time>
      </trkpt>
      <trkpt lat="44.72367" lon="3.2799">
        <ele>963.1</ele>
        <time>2021-06-05T14:36:29Z</time>
      </trkpt>
      <trkpt lat="44.72336" lon="3.28014">
        <ele>965.8</ele>
        <time>2021-06-05T14:37:00Z</time>
      </trkpt>
      <trkpt lat="44.72307" lon="3.28031">
        <ele>966.3</ele>
        <time>2021-06-05T14:37:31Z</time>
      </trkpt>
      <trkpt lat="44.72329" lon="3.28064">
        <ele>967.4</ele>
        <time>2021-06-05T14:38:01Z</time>
      </trkpt>
      <trkpt lat="44.72326" lon="3.28105">
        <ele>973.5</ele>
        <time>2021-06-05T14:38:32Z</time>
      </trkpt>
      <trkpt lat="44.72318" lon="3.28148">
        <ele>975</ele>
        <time>2021-06-05T14:39:03Z</time>
      </trkpt>
      <trkpt lat="44.72311" lon="3.2818">
        <ele>978</ele>
        <time>2021-06-05T14:39:33Z</time>
      </trkpt>
      <trkpt lat="44.72303" lon="3.28208">
        <ele>981.3</ele>
        <time>2021-06-05T14:40:03Z</time>
      </trkpt>
      <trkpt lat="44.72299" lon="3.28253">
        <ele>984.8</ele>
        <time>2021-06-05T14:40:34Z</time>
      </trkpt>
      <trkpt lat="44.72303" lon="3.28294">
        <ele>985.2</ele>
        <time>2021-06-05T14:41:05Z</time>
      </trkpt>
      <trkpt lat="44.72306" lon="3.28341">
        <ele>989.2</ele>
        <time>2021-06-05T14:41:36Z</time>
      </trkpt>
      <trkpt lat="44.72305" lon="3.28391">
        <ele>992.6</ele>
        <time>2021-06-05T14:42:06Z</time>
      </trkpt>
      <trkpt lat="44.72317" lon="3.28429">
        <ele>992.7</ele>
        <time>2021-06-05T14:42:37Z</time>
      </trkpt>
      <trkpt lat="44.72315" lon="3.28444">
        <ele>992.2</ele>
        <time>2021-06-05T14:43:07Z</time>
      </trkpt>
      <trkpt lat="44.72287" lon="3.28445">
        <ele>989.1</ele>
        <time>2021-06-05T14:43:38Z</time>
      </trkpt>
      <trkpt lat="44.72267" lon="3.28425">
        <ele>992.3</ele>
        <time>2021-06-05T14:44:08Z</time>
      </trkpt>
      <trkpt lat="44.72251" lon="3.28393">
        <ele>993.1</ele>
        <time>2021-06-05T14:44:39Z</time>
      </trkpt>
      <trkpt lat="44.72232" lon="3.28357">
        <ele>995.8</ele>
        <time>2021-06-05T14:45:09Z</time>
      </trkpt>
      <trkpt lat="44.72222" lon="3.28345">
        <ele>997.9</ele>
        <time>2021-06-05T14:45:39Z</time>
      </trkpt>
      <trkpt lat="44.72193" lon="3.28321">
        <ele>997.6</ele>
        <time>2021-06-05T14:46:09Z</time>
      </trkpt>
      <trkpt lat="44.72176" lon="3.28309">
        <ele>997</ele>
        <time>2021-06-05T14:46:40Z</time>
      </trkpt>
      <trkpt lat="44.7215" lon="3.28276">
        <ele>995.3</ele>
        <time>2021-06-05T14:47:11Z</time>
      </trkpt>
    </trkseg>
  </trk>
</gpx>